Wetterdaten: Donnerstag, 30.07.2015
Datum Zeit Temp. Aussen +5cm Feuchte Auss BlattFeu 1 Luftdruck Regen Sonnenschein Regendauer Solar Windben
30.07.2015 00:00 13,1 C 11,1 C 84 % 0 lf 1012,4 hPa 0,0 l/m 0 min 0 min 0 W/m 6,3 km/h (2 Bft)
30.07.2015 00:02 13,0 C 11,1 C 84 % 0 lf 1012,4 hPa 0,0 l/m 0 min 0 min 0 W/m 6,3 km/h (2 Bft)
30.07.2015 00:05 13,0 C 10,6 C 84 % 0 lf 1012,4 hPa 0,0 l/m 0 min 0 min 0 W/m 8,4 km/h (2 Bft)
30.07.2015 00:06 12,9 C 10,6 C 84 % 0 lf 1012,4 hPa 0,0 l/m 0 min 0 min 0 W/m 10,5 km/h (2 Bft)
30.07.2015 00:08 12,9 C 10,6 C 84 % 0 lf 1012,4 hPa 0,0 l/m 0 min 0 min 0 W/m 8,4 km/h (2 Bft)
30.07.2015 00:10 12,9 C 10,6 C 84 % 0 lf 1012,4 hPa 0,0 l/m 0 min 0 min 0 W/m 8,4 km/h (2 Bft)
30.07.2015 00:12 12,8 C 10,6 C 84 % 0 lf 1012,4 hPa 0,0 l/m 0 min 0 min 0 W/m 10,5 km/h (2 Bft)
30.07.2015 00:14 12,8 C 10,6 C 84 % 0 lf 1012,4 hPa 0,0 l/m 0 min 0 min 0 W/m 8,4 km/h (2 Bft)
30.07.2015 00:16 12,8 C 10,6 C 84 % 0 lf 1012,4 hPa 0,0 l/m 0 min 0 min 0 W/m 8,4 km/h (2 Bft)
30.07.2015 00:18 12,7 C 10,6 C 84 % 0 lf 1012,3 hPa 0,0 l/m 0 min 0 min 0 W/m 6,3 km/h (2 Bft)
30.07.2015 00:20 12,7 C 10,6 C 84 % 0 lf 1012,4 hPa 0,0 l/m 0 min 0 min 0 W/m 8,4 km/h (2 Bft)
30.07.2015 00:22 12,7 C 10,6 C 85 % 0 lf 1012,4 hPa 0,0 l/m 0 min 0 min 0 W/m 8,4 km/h (2 Bft)
30.07.2015 00:24 12,6 C 10,6 C 85 % 0 lf 1012,4 hPa 0,0 l/m 0 min 0 min 0 W/m 6,3 km/h (2 Bft)
30.07.2015 00:26 12,6 C 10,6 C 85 % 0 lf 1012,4 hPa 0,0 l/m 0 min 0 min 0 W/m 8,4 km/h (2 Bft)
30.07.2015 00:28 12,6 C 10,6 C 85 % 0 lf 1012,5 hPa 0,0 l/m 0 min 0 min 0 W/m 10,5 km/h (2 Bft)
30.07.2015 00:30 12,5 C 10,6 C 85 % 0 lf 1012,4 hPa 0,0 l/m 0 min 0 min 0 W/m 8,4 km/h (2 Bft)
30.07.2015 00:32 12,5 C 10,6 C 85 % 0 lf 1012,4 hPa 0,0 l/m 0 min 0 min 0 W/m 8,4 km/h (2 Bft)
30.07.2015 00:34 12,4 C 10,6 C 85 % 0 lf 1012,4 hPa 0,0 l/m 0 min 0 min 0 W/m 12,6 km/h (3 Bft)
30.07.2015 00:36 12,4 C 10,6 C 85 % 0 lf 1012,4 hPa 0,0 l/m 0 min 0 min 0 W/m 10,5 km/h (2 Bft)
30.07.2015 00:38 12,4 C 10,6 C 85 % 0 lf 1012,6 hPa 0,0 l/m 0 min 0 min 0 W/m 12,6 km/h (3 Bft)
30.07.2015 00:40 12,3 C 10,6 C 85 % 0 lf 1012,5 hPa 0,0 l/m 0 min 0 min 0 W/m 8,4 km/h (2 Bft)
30.07.2015 00:42 12,3 C 10,6 C 86 % 0 lf 1012,5 hPa 0,0 l/m 0 min 0 min 0 W/m 10,5 km/h (2 Bft)
30.07.2015 00:44 12,3 C 10,6 C 86 % 0 lf 1012,5 hPa 0,0 l/m 0 min 0 min 0 W/m 12,6 km/h (3 Bft)
30.07.2015 00:46 12,3 C 10,6 C 86 % 0 lf 1012,5 hPa 0,0 l/m 0 min 0 min 0 W/m 8,4 km/h (2 Bft)
30.07.2015 00:48 12,3 C 10,6 C 86 % 0 lf 1012,5 hPa 0,0 l/m 0 min 0 min 0 W/m 10,5 km/h (2 Bft)
30.07.2015 00:50 12,2 C 10,6 C 86 % 0 lf 1012,4 hPa 0,0 l/m 0 min 0 min 0 W/m 8,4 km/h (2 Bft)
30.07.2015 00:52 12,2 C 10,6 C 86 % 0 lf 1012,4 hPa 0,0 l/m 0 min 0 min 0 W/m 8,4 km/h (2 Bft)
30.07.2015 00:54 12,2 C 10,6 C 86 % 0 lf 1012,5 hPa 0,0 l/m 0 min 0 min 0 W/m 8,4 km/h (2 Bft)
30.07.2015 00:56 12,2 C 10,6 C 86 % 0 lf 1012,5 hPa 0,0 l/m 0 min 0 min 0 W/m 10,5 km/h (2 Bft)
30.07.2015 00:58 12,2 C 10,6 C 86 % 0 lf 1012,6 hPa 0,0 l/m 0 min 0 min 0 W/m 10,5 km/h (2 Bft)
30.07.2015 01:00 12,1 C 10,6 C 86 % 0 lf 1012,6 hPa 0,0 l/m 0 min 0 min 0 W/m 10,5 km/h (2 Bft)
30.07.2015 01:02 12,1 C 10,6 C 86 % 0 lf 1012,6 hPa 0,0 l/m 0 min 0 min 0 W/m 12,6 km/h (3 Bft)
30.07.2015 01:04 12,1 C 10,6 C 87 % 0 lf 1012,7 hPa 0,0 l/m 0 min 0 min 0 W/m 8,4 km/h (2 Bft)
30.07.2015 01:06 12,1 C 10,6 C 87 % 0 lf 1012,7 hPa 0,0 l/m 0 min 0 min 0 W/m 8,4 km/h (2 Bft)
30.07.2015 01:08 12,1 C 10,6 C 87 % 0 lf 1012,7 hPa 0,0 l/m 0 min 0 min 0 W/m 10,5 km/h (2 Bft)
30.07.2015 01:10 12,0 C 10,6 C 87 % 0 lf 1012,7 hPa 0,0 l/m 0 min 0 min 0 W/m 8,4 km/h (2 Bft)
30.07.2015 01:12 12,0 C 10,6 C 87 % 0 lf 1012,7 hPa 0,0 l/m 0 min 0 min 0 W/m 8,4 km/h (2 Bft)
30.07.2015 01:14 12,0 C 10,6 C 87 % 0 lf 1012,7 hPa 0,0 l/m 0 min 0 min 0 W/m 6,3 km/h (2 Bft)
30.07.2015 01:16 11,9 C 10,6 C 87 % 0 lf 1012,7 hPa 0,0 l/m 0 min 0 min 0 W/m 10,5 km/h (2 Bft)
30.07.2015 01:18 11,9 C 10,6 C 87 % 0 lf 1012,7 hPa 0,0 l/m 0 min 0 min 0 W/m 10,5 km/h (2 Bft)
30.07.2015 01:20 11,9 C 10,6 C 87 % 0 lf 1012,7 hPa 0,0 l/m 0 min 0 min 0 W/m 8,4 km/h (2 Bft)
30.07.2015 01:22 11,9 C 10,6 C 87 % 0 lf 1012,7 hPa 0,0 l/m 0 min 0 min 0 W/m 10,5 km/h (2 Bft)
30.07.2015 01:24 11,9 C 10,6 C 87 % 0 lf 1012,7 hPa 0,0 l/m 0 min 0 min 0 W/m 8,4 km/h (2 Bft)
30.07.2015 01:26 11,9 C 10,6 C 87 % 0 lf 1012,7 hPa 0,0 l/m 0 min 0 min 0 W/m 8,4 km/h (2 Bft)
30.07.2015 01:28 11,9 C 10,6 C 87 % 0 lf 1012,7 hPa 0,0 l/m 0 min 0 min 0 W/m 8,4 km/h (2 Bft)
30.07.2015 01:30 11,8 C 10,6 C 87 % 0 lf 1012,7 hPa 0,0 l/m 0 min 0 min 0 W/m 8,4 km/h (2 Bft)
30.07.2015 01:32 11,8 C 10,6 C 87 % 0 lf 1012,7 hPa 0,0 l/m 0 min 0 min 0 W/m 10,5 km/h (2 Bft)
30.07.2015 01:34 11,8 C 10,6 C 87 % 0 lf 1012,7 hPa 0,0 l/m 0 min 0 min 0 W/m 8,4 km/h (2 Bft)
30.07.2015 01:36 11,8 C 10,6 C 88 % 0 lf 1012,7 hPa 0,0 l/m 0 min 0 min 0 W/m 8,4 km/h (2 Bft)
30.07.2015 01:38 11,8 C 10,6 C 88 % 0 lf 1012,7 hPa 0,0 l/m 0 min 0 min 0 W/m 8,4 km/h (2 Bft)
30.07.2015 01:40 11,7 C 10,6 C 88 % 0 lf 1012,6 hPa 0,0 l/m 0 min 0 min 0 W/m 6,3 km/h (2 Bft)
30.07.2015 01:42 11,7 C 10,0 C 88 % 0 lf 1012,7 hPa 0,0 l/m 0 min 0 min 0 W/m 8,4 km/h (2 Bft)
30.07.2015 01:44 11,7 C 10,0 C 88 % 0 lf 1012,7 hPa 0,0 l/m 0 min 0 min 0 W/m 10,5 km/h (2 Bft)
30.07.2015 01:46 11,7 C 10,6 C 88 % 0 lf 1012,7 hPa 0,0 l/m 0 min 0 min 0 W/m 8,4 km/h (2 Bft)
30.07.2015 01:48 11,7 C 10,6 C 88 % 0 lf 1012,7 hPa 0,0 l/m 0 min 0 min 0 W/m 10,5 km/h (2 Bft)
30.07.2015 01:50 11,7 C 10,0 C 88 % 0 lf 1012,7 hPa 0,0 l/m 0 min 0 min 0 W/m 8,4 km/h (2 Bft)
30.07.2015 01:52 11,7 C 10,0 C 88 % 0 lf 1012,6 hPa 0,0 l/m 0 min 0 min 0 W/m 10,5 km/h (2 Bft)
30.07.2015 01:54 11,6 C 10,6 C 88 % 0 lf 1012,6 hPa 0,0 l/m 0 min 0 min 0 W/m 10,5 km/h (2 Bft)
30.07.2015 01:56 11,6 C 10,0 C 88 % 0 lf 1012,6 hPa 0,0 l/m 0 min 0 min 0 W/m 6,3 km/h (2 Bft)
30.07.2015 01:58 11,6 C 10,0 C 88 % 0 lf 1012,6 hPa 0,0 l/m 0 min 0 min 0 W/m 12,6 km/h (3 Bft)
30.07.2015 02:00 11,6 C 10,0 C 88 % 0 lf 1012,6 hPa 0,0 l/m 0 min 0 min 0 W/m 6,3 km/h (2 Bft)
30.07.2015 02:02 11,6 C 10,0 C 88 % 0 lf 1012,6 hPa 0,0 l/m 0 min 0 min 0 W/m 8,4 km/h (2 Bft)
30.07.2015 02:04 11,6 C 10,0 C 88 % 0 lf 1012,7 hPa 0,0 l/m 0 min 0 min 0 W/m 8,4 km/h (2 Bft)
30.07.2015 02:06 11,5 C 10,0 C 88 % 0 lf 1012,6 hPa 0,0 l/m 0 min 0 min 0 W/m 8,4 km/h (2 Bft)
30.07.2015 02:08 11,5 C 10,0 C 88 % 0 lf 1012,6 hPa 0,0 l/m 0 min 0 min 0 W/m 6,3 km/h (2 Bft)
30.07.2015 02:10 11,5 C 10,0 C 88 % 0 lf 1012,6 hPa 0,0 l/m 0 min 0 min 0 W/m 6,3 km/h (2 Bft)
30.07.2015 02:12 11,4 C 10,0 C 88 % 0 lf 1012,6 hPa 0,0 l/m 0 min 0 min 0 W/m 6,3 km/h (2 Bft)
30.07.2015 02:14 11,4 C 10,0 C 88 % 0 lf 1012,6 hPa 0,0 l/m 0 min 0 min 0 W/m 8,4 km/h (2 Bft)
30.07.2015 02:16 11,4 C 10,0 C 88 % 0 lf 1012,6 hPa 0,0 l/m 0 min 0 min 0 W/m 6,3 km/h (2 Bft)
30.07.2015 02:18 11,4 C 10,0 C 88 % 0 lf 1012,6 hPa 0,0 l/m 0 min 0 min 0 W/m 8,4 km/h (2 Bft)
30.07.2015 02:20 11,4 C 10,0 C 88 % 0 lf 1012,6 hPa 0,0 l/m 0 min 0 min 0 W/m 6,3 km/h (2 Bft)
30.07.2015 02:22 11,4 C 10,0 C 88 % 0 lf 1012,6 hPa 0,0 l/m 0 min 0 min 0 W/m 8,4 km/h (2 Bft)
30.07.2015 02:24 11,4 C 10,0 C 88 % 0 lf 1012,6 hPa 0,0 l/m 0 min 0 min 0 W/m 10,5 km/h (2 Bft)
30.07.2015 02:26 11,3 C 9,4 C 88 % 0 lf 1012,6 hPa 0,0 l/m 0 min 0 min 0 W/m 6,3 km/h (2 Bft)
30.07.2015 02:28 11,3 C 9,4 C 89 % 0 lf 1012,6 hPa 0,0 l/m 0 min 0 min 0 W/m 6,3 km/h (2 Bft)
30.07.2015 02:30 11,3 C 9,4 C 89 % 0 lf 1012,7 hPa 0,0 l/m 0 min 0 min 0 W/m 6,3 km/h (2 Bft)
30.07.2015 02:32 11,3 C 9,4 C 89 % 0 lf 1012,7 hPa 0,0 l/m 0 min 0 min 0 W/m 8,4 km/h (2 Bft)
30.07.2015 02:34 11,2 C 10,0 C 89 % 0 lf 1012,7 hPa 0,0 l/m 0 min 0 min 0 W/m 6,3 km/h (2 Bft)
30.07.2015 02:36 11,2 C 10,0 C 89 % 0 lf 1012,7 hPa 0,0 l/m 0 min 0 min 0 W/m 10,5 km/h (2 Bft)
30.07.2015 02:38 11,2 C 10,0 C 89 % 0 lf 1012,7 hPa 0,0 l/m 0 min 0 min 0 W/m 8,4 km/h (2 Bft)
30.07.2015 02:40 11,2 C 10,0 C 89 % 0 lf 1012,6 hPa 0,0 l/m 0 min 0 min 0 W/m 10,5 km/h (2 Bft)
30.07.2015 02:42 11,2 C 10,0 C 89 % 0 lf 1012,6 hPa 0,0 l/m 0 min 0 min 0 W/m 8,4 km/h (2 Bft)
30.07.2015 02:44 11,2 C 10,0 C 89 % 0 lf 1012,6 hPa 0,0 l/m 0 min 0 min 0 W/m 8,4 km/h (2 Bft)
30.07.2015 02:46 11,2 C 10,0 C 89 % 0 lf 1012,6 hPa 0,0 l/m 0 min 0 min 0 W/m 10,5 km/h (2 Bft)
30.07.2015 02:48 11,2 C 10,0 C 89 % 0 lf 1012,6 hPa 0,0 l/m 0 min 0 min 0 W/m 8,4 km/h (2 Bft)
30.07.2015 02:50 11,1 C 10,0 C 89 % 0 lf 1012,7 hPa 0,0 l/m 0 min 0 min 0 W/m 8,4 km/h (2 Bft)
30.07.2015 02:52 11,1 C 10,0 C 89 % 0 lf 1012,7 hPa 0,0 l/m 0 min 0 min 0 W/m 12,6 km/h (3 Bft)
30.07.2015 02:54 11,1 C 10,0 C 89 % 0 lf 1012,7 hPa 0,0 l/m 0 min 0 min 0 W/m 10,5 km/h (2 Bft)
30.07.2015 02:56 11,1 C 10,0 C 89 % 0 lf 1012,7 hPa 0,0 l/m 0 min 0 min 0 W/m 10,5 km/h (2 Bft)
30.07.2015 02:58 11,1 C 10,0 C 89 % 0 lf 1012,7 hPa 0,0 l/m 0 min 0 min 0 W/m 12,6 km/h (3 Bft)
30.07.2015 03:00 11,1 C 10,0 C 89 % 0 lf 1012,7 hPa 0,0 l/m 0 min 0 min 0 W/m 8,4 km/h (2 Bft)
30.07.2015 03:02 11,1 C 10,0 C 89 % 0 lf 1012,7 hPa 0,0 l/m 0 min 0 min 0 W/m 8,4 km/h (2 Bft)
30.07.2015 03:04 11,1 C 10,0 C 89 % 0 lf 1012,7 hPa 0,0 l/m 0 min 0 min 0 W/m 8,4 km/h (2 Bft)
30.07.2015 03:06 11,0 C 10,0 C 89 % 0 lf 1012,8 hPa 0,0 l/m 0 min 0 min 0 W/m 12,6 km/h (3 Bft)
30.07.2015 03:08 11,0 C 10,0 C 89 % 0 lf 1012,8 hPa 0,0 l/m 0 min 0 min 0 W/m 4,2 km/h (1 Bft)
30.07.2015 03:10 11,0 C 10,0 C 89 % 0 lf 1012,8 hPa 0,0 l/m 0 min 0 min 0 W/m 6,3 km/h (2 Bft)
30.07.2015 03:12 11,0 C 10,0 C 90 % 0 lf 1012,8 hPa 0,0 l/m 0 min 0 min 0 W/m 8,4 km/h (2 Bft)
30.07.2015 03:14 11,0 C 9,4 C 90 % 0 lf 1012,8 hPa 0,0 l/m 0 min 0 min 0 W/m 6,3 km/h (2 Bft)
30.07.2015 03:16 11,0 C 9,4 C 90 % 0 lf 1012,7 hPa 0,0 l/m 0 min 0 min 0 W/m 4,2 km/h (1 Bft)
30.07.2015 03:18 11,0 C 9,4 C 90 % 0 lf 1012,7 hPa 0,0 l/m 0 min 0 min 0 W/m 4,2 km/h (1 Bft)
30.07.2015 03:20 11,0 C 9,4 C 90 % 0 lf 1012,7 hPa 0,0 l/m 0 min 0 min 0 W/m 4,2 km/h (1 Bft)
30.07.2015 03:22 10,9 C 9,4 C 90 % 0 lf 1012,7 hPa 0,0 l/m 0 min 0 min 0 W/m 4,2 km/h (1 Bft)
30.07.2015 03:24 10,9 C 9,4 C 90 % 0 lf 1012,7 hPa 0,0 l/m 0 min 0 min 0 W/m 4,2 km/h (1 Bft)
30.07.2015 03:26 10,9 C 9,4 C 90 % 0 lf 1012,7 hPa 0,0 l/m 0 min 0 min 0 W/m 4,2 km/h (1 Bft)
30.07.2015 03:28 10,9 C 9,4 C 90 % 0 lf 1012,7 hPa 0,0 l/m 0 min 0 min 0 W/m 2,1 km/h (1 Bft)
30.07.2015 03:30 10,9 C 9,4 C 90 % 0 lf 1012,8 hPa 0,0 l/m 0 min 0 min 0 W/m 2,1 km/h (1 Bft)
30.07.2015 03:32 10,9 C 8,9 C 90 % 1 lf 1012,8 hPa 0,0 l/m 0 min 0 min 0 W/m 2,1 km/h (1 Bft)
30.07.2015 03:34 10,9 C 8,9 C 89 % 1 lf 1012,7 hPa 0,0 l/m 0 min 0 min 0 W/m 2,1 km/h (1 Bft)
30.07.2015 03:36 10,8 C 8,9 C 89 % 1 lf 1012,7 hPa 0,0 l/m 0 min 0 min 0 W/m 2,1 km/h (1 Bft)
30.07.2015 03:38 10,8 C 8,9 C 89 % 1 lf 1012,7 hPa 0,0 l/m 0 min 0 min 0 W/m 2,1 km/h (1 Bft)
30.07.2015 03:40 10,8 C 8,9 C 89 % 1 lf 1012,8 hPa 0,0 l/m 0 min 0 min 0 W/m 2,1 km/h (1 Bft)
30.07.2015 03:42 10,8 C 8,9 C 89 % 1 lf 1012,8 hPa 0,0 l/m 0 min 0 min 0 W/m 4,2 km/h (1 Bft)
30.07.2015 03:44 10,8 C 8,9 C 89 % 1 lf 1012,7 hPa 0,0 l/m 0 min 0 min 0 W/m 2,1 km/h (1 Bft)
30.07.2015 03:46 10,8 C 8,9 C 89 % 1 lf 1012,7 hPa 0,0 l/m 0 min 0 min 0 W/m 4,2 km/h (1 Bft)
30.07.2015 03:48 10,7 C 8,9 C 89 % 1 lf 1012,8 hPa 0,0 l/m 0 min 0 min 0 W/m 4,2 km/h (1 Bft)
30.07.2015 03:50 10,7 C 8,9 C 89 % 1 lf 1012,8 hPa 0,0 l/m 0 min 0 min 0 W/m 6,3 km/h (2 Bft)
30.07.2015 03:52 10,7 C 8,9 C 89 % 1 lf 1012,8 hPa 0,0 l/m 0 min 0 min 0 W/m 6,3 km/h (2 Bft)
30.07.2015 03:54 10,7 C 8,9 C 89 % 1 lf 1012,7 hPa 0,0 l/m 0 min 0 min 0 W/m 4,2 km/h (1 Bft)
30.07.2015 03:56 10,7 C 8,9 C 89 % 1 lf 1012,8 hPa 0,0 l/m 0 min 0 min 0 W/m 4,2 km/h (1 Bft)
30.07.2015 03:58 10,6 C 8,9 C 89 % 1 lf 1012,7 hPa 0,0 l/m 0 min 0 min 0 W/m 2,1 km/h (1 Bft)
30.07.2015 04:00 10,6 C 8,9 C 89 % 1 lf 1012,8 hPa 0,0 l/m 0 min 0 min 0 W/m 2,1 km/h (1 Bft)
30.07.2015 04:05 10,5 C 8,9 C 89 % 1 lf 1012,9 hPa 0,0 l/m 0 min 0 min 0 W/m 2,1 km/h (1 Bft)
30.07.2015 04:06 10,5 C 8,9 C 90 % 1 lf 1012,8 hPa 0,0 l/m 0 min 0 min 0 W/m 2,1 km/h (1 Bft)
30.07.2015 04:08 10,5 C 8,9 C 90 % 1 lf 1012,8 hPa 0,0 l/m 0 min 0 min 0 W/m 4,2 km/h (1 Bft)
30.07.2015 04:10 10,5 C 8,9 C 89 % 1 lf 1012,9 hPa 0,0 l/m 0 min 0 min 0 W/m 4,2 km/h (1 Bft)
30.07.2015 04:12 10,4 C 8,9 C 89 % 1 lf 1013,0 hPa 0,0 l/m 0 min 0 min 0 W/m 4,2 km/h (1 Bft)
30.07.2015 04:14 10,4 C 8,9 C 89 % 1 lf 1012,9 hPa 0,0 l/m 0 min 0 min 0 W/m 6,3 km/h (2 Bft)
30.07.2015 04:16 10,4 C 8,9 C 90 % 1 lf 1012,7 hPa 0,0 l/m 0 min 0 min 0 W/m 6,3 km/h (2 Bft)
30.07.2015 04:18 10,4 C 8,9 C 90 % 0 lf 1012,8 hPa 0,0 l/m 0 min 0 min 0 W/m 6,3 km/h (2 Bft)
30.07.2015 04:20 10,4 C 9,4 C 90 % 0 lf 1012,9 hPa 0,0 l/m 0 min 0 min 0 W/m 6,3 km/h (2 Bft)
30.07.2015 04:22 10,4 C 9,4 C 90 % 0 lf 1012,8 hPa 0,0 l/m 0 min 0 min 0 W/m 4,2 km/h (1 Bft)
30.07.2015 04:24 10,4 C 9,4 C 90 % 0 lf 1012,8 hPa 0,0 l/m 0 min 0 min 0 W/m 8,4 km/h (2 Bft)
30.07.2015 04:26 10,4 C 9,4 C 90 % 0 lf 1012,8 hPa 0,0 l/m 0 min 0 min 0 W/m 6,3 km/h (2 Bft)
30.07.2015 04:28 10,4 C 9,4 C 90 % 0 lf 1012,8 hPa 0,0 l/m 0 min 0 min 0 W/m 6,3 km/h (2 Bft)
30.07.2015 04:30 10,3 C 9,4 C 90 % 0 lf 1012,8 hPa 0,0 l/m 0 min 0 min 0 W/m 8,4 km/h (2 Bft)
30.07.2015 04:32 10,4 C 9,4 C 90 % 0 lf 1012,8 hPa 0,0 l/m 0 min 0 min 0 W/m 10,5 km/h (2 Bft)
30.07.2015 04:34 10,3 C 9,4 C 91 % 0 lf 1012,8 hPa 0,0 l/m 0 min 0 min 0 W/m 10,5 km/h (2 Bft)
30.07.2015 04:36 10,4 C 10,0 C 91 % 0 lf 1012,8 hPa 0,0 l/m 0 min 0 min 0 W/m 8,4 km/h (2 Bft)
30.07.2015 04:38 10,4 C 10,0 C 91 % 0 lf 1012,7 hPa 0,0 l/m 0 min 0 min 0 W/m 8,4 km/h (2 Bft)
30.07.2015 04:40 10,4 C 10,0 C 91 % 0 lf 1012,7 hPa 0,0 l/m 0 min 0 min 0 W/m 8,4 km/h (2 Bft)
30.07.2015 04:42 10,4 C 10,0 C 91 % 0 lf 1012,8 hPa 0,0 l/m 0 min 0 min 0 W/m 8,4 km/h (2 Bft)
30.07.2015 04:44 10,4 C 10,0 C 91 % 0 lf 1012,8 hPa 0,0 l/m 0 min 0 min 0 W/m 6,3 km/h (2 Bft)
30.07.2015 04:46 10,4 C 10,0 C 91 % 0 lf 1012,8 hPa 0,0 l/m 0 min 0 min 0 W/m 12,6 km/h (3 Bft)
30.07.2015 04:48 10,4 C 10,0 C 91 % 0 lf 1012,8 hPa 0,0 l/m 0 min 0 min 0 W/m 8,4 km/h (2 Bft)
30.07.2015 04:50 10,4 C 10,0 C 91 % 0 lf 1012,8 hPa 0,0 l/m 0 min 0 min 0 W/m 8,4 km/h (2 Bft)
30.07.2015 04:52 10,5 C 10,0 C 91 % 0 lf 1012,8 hPa 0,0 l/m 0 min 0 min 0 W/m 10,5 km/h (2 Bft)
30.07.2015 04:54 10,5 C 10,0 C 92 % 0 lf 1012,9 hPa 0,0 l/m 0 min 0 min 0 W/m 8,4 km/h (2 Bft)
30.07.2015 04:56 10,5 C 10,0 C 92 % 0 lf 1012,9 hPa 0,0 l/m 0 min 0 min 0 W/m 10,5 km/h (2 Bft)
30.07.2015 04:58 10,5 C 10,0 C 92 % 0 lf 1012,9 hPa 0,0 l/m 0 min 0 min 0 W/m 10,5 km/h (2 Bft)
30.07.2015 05:00 10,6 C 10,0 C 92 % 0 lf 1012,9 hPa 0,0 l/m 0 min 0 min 0 W/m 10,5 km/h (2 Bft)
30.07.2015 05:02 10,6 C 10,0 C 92 % 0 lf 1012,9 hPa 0,0 l/m 0 min 0 min 0 W/m 6,3 km/h (2 Bft)
30.07.2015 05:04 10,6 C 10,0 C 92 % 0 lf 1012,9 hPa 0,0 l/m 0 min 0 min 0 W/m 6,3 km/h (2 Bft)
30.07.2015 05:06 10,6 C 10,0 C 92 % 0 lf 1012,9 hPa 0,0 l/m 0 min 0 min 0 W/m 6,3 km/h (2 Bft)
30.07.2015 05:08 10,6 C 10,0 C 92 % 0 lf 1012,9 hPa 0,0 l/m 0 min 0 min 0 W/m 6,3 km/h (2 Bft)
30.07.2015 05:10 10,6 C 10,0 C 92 % 0 lf 1012,9 hPa 0,0 l/m 0 min 0 min 0 W/m 8,4 km/h (2 Bft)
30.07.2015 05:12 10,7 C 10,0 C 92 % 0 lf 1013,0 hPa 0,0 l/m 0 min 0 min 0 W/m 8,4 km/h (2 Bft)
30.07.2015 05:14 10,7 C 10,0 C 92 % 0 lf 1013,0 hPa 0,0 l/m 0 min 0 min 0 W/m 8,4 km/h (2 Bft)
30.07.2015 05:16 10,7 C 10,0 C 92 % 0 lf 1013,0 hPa 0,0 l/m 0 min 0 min 0 W/m 8,4 km/h (2 Bft)
30.07.2015 05:18 10,7 C 10,0 C 92 % 0 lf 1013,1 hPa 0,0 l/m 0 min 0 min 0 W/m 10,5 km/h (2 Bft)
30.07.2015 05:20 10,7 C 10,0 C 92 % 0 lf 1013,1 hPa 0,0 l/m 0 min 0 min 0 W/m 8,4 km/h (2 Bft)
30.07.2015 05:22 10,7 C 10,0 C 92 % 0 lf 1013,1 hPa 0,0 l/m 0 min 0 min 0 W/m 6,3 km/h (2 Bft)
30.07.2015 05:24 10,7 C 10,0 C 92 % 0 lf 1013,1 hPa 0,0 l/m 0 min 0 min 0 W/m 6,3 km/h (2 Bft)
30.07.2015 05:26 10,7 C 10,0 C 92 % 0 lf 1013,1 hPa 0,0 l/m 0 min 0 min 0 W/m 6,3 km/h (2 Bft)
30.07.2015 05:28 10,7 C 10,0 C 92 % 0 lf 1013,1 hPa 0,0 l/m 0 min 0 min 0 W/m 4,2 km/h (1 Bft)
30.07.2015 05:30 10,7 C 9,4 C 92 % 0 lf 1013,1 hPa 0,0 l/m 0 min 0 min 0 W/m 4,2 km/h (1 Bft)
30.07.2015 05:32 10,7 C 9,4 C 92 % 0 lf 1013,1 hPa 0,0 l/m 0 min 0 min 0 W/m 6,3 km/h (2 Bft)
30.07.2015 05:34 10,7 C 9,4 C 92 % 1 lf 1013,1 hPa 0,0 l/m 0 min 0 min 0 W/m 6,3 km/h (2 Bft)
30.07.2015 05:36 10,7 C 9,4 C 92 % 1 lf 1013,1 hPa 0,0 l/m 0 min 0 min 0 W/m 6,3 km/h (2 Bft)
30.07.2015 05:38 10,7 C 9,4 C 92 % 1 lf 1013,2 hPa 0,0 l/m 0 min 0 min 0 W/m 4,2 km/h (1 Bft)
30.07.2015 05:40 10,7 C 9,4 C 92 % 1 lf 1013,1 hPa 0,0 l/m 0 min 0 min 0 W/m 6,3 km/h (2 Bft)
30.07.2015 05:42 10,7 C 9,4 C 92 % 1 lf 1013,2 hPa 0,0 l/m 0 min 0 min 0 W/m 4,2 km/h (1 Bft)
30.07.2015 05:44 10,7 C 9,4 C 92 % 1 lf 1013,2 hPa 0,0 l/m 0 min 0 min 4 W/m 4,2 km/h (1 Bft)
30.07.2015 05:46 10,7 C 9,4 C 92 % 1 lf 1013,1 hPa 0,0 l/m 0 min 0 min 5 W/m 6,3 km/h (2 Bft)
30.07.2015 05:48 10,7 C 9,4 C 92 % 1 lf 1013,2 hPa 0,0 l/m 0 min 0 min 5 W/m 6,3 km/h (2 Bft)
30.07.2015 05:50 10,7 C 9,4 C 92 % 1 lf 1013,1 hPa 0,0 l/m 0 min 0 min 5 W/m 6,3 km/h (2 Bft)
30.07.2015 05:52 10,7 C 9,4 C 92 % 0 lf 1013,2 hPa 0,0 l/m 0 min 0 min 7 W/m 6,3 km/h (2 Bft)
30.07.2015 05:54 10,7 C 9,4 C 92 % 0 lf 1013,1 hPa 0,0 l/m 0 min 0 min 8 W/m 6,3 km/h (2 Bft)
30.07.2015 05:56 10,7 C 9,4 C 92 % 0 lf 1013,1 hPa 0,0 l/m 0 min 0 min 9 W/m 6,3 km/h (2 Bft)
30.07.2015 05:58 10,7 C 9,4 C 92 % 0 lf 1013,2 hPa 0,0 l/m 0 min 0 min 9 W/m 6,3 km/h (2 Bft)
30.07.2015 06:00 10,7 C 10,0 C 92 % 0 lf 1013,2 hPa 0,0 l/m 0 min 0 min 9 W/m 6,3 km/h (2 Bft)
30.07.2015 06:02 10,7 C 10,0 C 92 % 0 lf 1013,2 hPa 0,0 l/m 0 min 0 min 10 W/m 6,3 km/h (2 Bft)
30.07.2015 06:05 10,7 C 10,0 C 92 % 0 lf 1013,2 hPa 0,0 l/m 0 min 0 min 11 W/m 6,3 km/h (2 Bft)
30.07.2015 06:06 10,7 C 10,0 C 92 % 0 lf 1013,2 hPa 0,0 l/m 0 min 0 min 11 W/m 8,4 km/h (2 Bft)
30.07.2015 06:08 10,7 C 10,0 C 92 % 0 lf 1013,2 hPa 0,0 l/m 0 min 0 min 11 W/m 6,3 km/h (2 Bft)
30.07.2015 06:10 10,7 C 10,0 C 92 % 0 lf 1013,2 hPa 0,0 l/m 0 min 0 min 11 W/m 8,4 km/h (2 Bft)
30.07.2015 06:12 10,7 C 10,0 C 92 % 0 lf 1013,2 hPa 0,0 l/m 0 min 0 min 12 W/m 6,3 km/h (2 Bft)
30.07.2015 06:14 10,7 C 10,0 C 92 % 0 lf 1013,3 hPa 0,0 l/m 0 min 0 min 13 W/m 10,5 km/h (2 Bft)
30.07.2015 06:16 10,7 C 10,0 C 92 % 0 lf 1013,3 hPa 0,0 l/m 0 min 0 min 15 W/m 8,4 km/h (2 Bft)
30.07.2015 06:18 10,7 C 10,0 C 92 % 0 lf 1013,3 hPa 0,0 l/m 0 min 0 min 17 W/m 10,5 km/h (2 Bft)
30.07.2015 06:20 10,7 C 10,0 C 92 % 0 lf 1013,3 hPa 0,0 l/m 0 min 0 min 19 W/m 6,3 km/h (2 Bft)
30.07.2015 06:22 10,7 C 10,0 C 92 % 0 lf 1013,3 hPa 0,0 l/m 0 min 0 min 21 W/m 8,4 km/h (2 Bft)
30.07.2015 06:24 10,7 C 10,0 C 92 % 0 lf 1013,3 hPa 0,0 l/m 0 min 0 min 25 W/m 10,5 km/h (2 Bft)
30.07.2015 06:26 10,8 C 10,0 C 92 % 0 lf 1013,3 hPa 0,0 l/m 0 min 0 min 27 W/m 6,3 km/h (2 Bft)
30.07.2015 06:28 10,8 C 10,0 C 92 % 0 lf 1013,3 hPa 0,0 l/m 2 min 0 min 31 W/m 6,3 km/h (2 Bft)
30.07.2015 06:30 10,8 C 10,6 C 92 % 0 lf 1013,3 hPa 0,0 l/m 0 min 0 min 32 W/m 8,4 km/h (2 Bft)
30.07.2015 06:32 10,8 C 10,6 C 92 % 0 lf 1013,3 hPa 0,0 l/m 0 min 0 min 33 W/m 10,5 km/h (2 Bft)
30.07.2015 06:34 10,8 C 10,6 C 92 % 0 lf 1013,3 hPa 0,0 l/m 0 min 0 min 34 W/m 6,3 km/h (2 Bft)
30.07.2015 06:36 10,8 C 10,6 C 92 % 0 lf 1013,3 hPa 0,0 l/m 0 min 0 min 35 W/m 10,5 km/h (2 Bft)
30.07.2015 06:38 10,8 C 10,6 C 92 % 0 lf 1013,4 hPa 0,0 l/m 0 min 0 min 36 W/m 8,4 km/h (2 Bft)
30.07.2015 06:40 10,8 C 10,6 C 92 % 0 lf 1013,4 hPa 0,0 l/m 0 min 0 min 38 W/m 10,5 km/h (2 Bft)
30.07.2015 06:42 10,9 C 10,6 C 92 % 0 lf 1013,4 hPa 0,0 l/m 0 min 0 min 39 W/m 8,4 km/h (2 Bft)
30.07.2015 06:44 10,9 C 10,6 C 92 % 0 lf 1013,4 hPa 0,0 l/m 0 min 0 min 40 W/m 8,4 km/h (2 Bft)
30.07.2015 06:46 10,9 C 10,6 C 92 % 0 lf 1013,4 hPa 0,0 l/m 0 min 0 min 42 W/m 10,5 km/h (2 Bft)
30.07.2015 06:48 10,9 C 10,6 C 92 % 0 lf 1013,5 hPa 0,0 l/m 0 min 0 min 44 W/m 8,4 km/h (2 Bft)
30.07.2015 06:50 10,9 C 10,6 C 92 % 0 lf 1013,5 hPa 0,0 l/m 0 min 0 min 46 W/m 10,5 km/h (2 Bft)
30.07.2015 06:52 11,0 C 10,6 C 92 % 0 lf 1013,5 hPa 0,0 l/m 0 min 0 min 47 W/m 8,4 km/h (2 Bft)
30.07.2015 06:54 11,0 C 10,6 C 92 % 0 lf 1013,6 hPa 0,0 l/m 0 min 0 min 47 W/m 8,4 km/h (2 Bft)
30.07.2015 06:56 11,0 C 10,6 C 92 % 0 lf 1013,6 hPa 0,0 l/m 0 min 0 min 49 W/m 6,3 km/h (2 Bft)
30.07.2015 06:58 11,1 C 10,6 C 93 % 0 lf 1013,6 hPa 0,0 l/m 0 min 0 min 50 W/m 8,4 km/h (2 Bft)
30.07.2015 07:00 11,1 C 10,6 C 93 % 0 lf 1013,6 hPa 0,0 l/m 0 min 0 min 53 W/m 8,4 km/h (2 Bft)
30.07.2015 07:02 11,1 C 10,6 C 93 % 0 lf 1013,6 hPa 0,0 l/m 0 min 0 min 53 W/m 8,4 km/h (2 Bft)
30.07.2015 07:04 11,1 C 10,6 C 93 % 0 lf 1013,6 hPa 0,0 l/m 0 min 0 min 52 W/m 10,5 km/h (2 Bft)
30.07.2015 07:06 11,1 C 10,6 C 93 % 0 lf 1013,6 hPa 0,0 l/m 0 min 0 min 49 W/m 8,4 km/h (2 Bft)
30.07.2015 07:08 11,2 C 10,6 C 93 % 0 lf 1013,6 hPa 0,0 l/m 0 min 0 min 47 W/m 8,4 km/h (2 Bft)
30.07.2015 07:10 11,2 C 10,6 C 93 % 0 lf 1013,6 hPa 0,0 l/m 0 min 0 min 48 W/m 10,5 km/h (2 Bft)
30.07.2015 07:12 11,2 C 10,6 C 93 % 0 lf 1013,7 hPa 0,0 l/m 0 min 0 min 49 W/m 10,5 km/h (2 Bft)
30.07.2015 07:14 11,2 C 10,6 C 93 % 0 lf 1013,6 hPa 0,0 l/m 0 min 0 min 49 W/m 8,4 km/h (2 Bft)
30.07.2015 07:16 11,2 C 10,6 C 93 % 0 lf 1013,7 hPa 0,0 l/m 0 min 0 min 51 W/m 8,4 km/h (2 Bft)
30.07.2015 07:18 11,2 C 10,6 C 92 % 0 lf 1013,7 hPa 0,0 l/m 0 min 0 min 60 W/m 8,4 km/h (2 Bft)
30.07.2015 07:20 11,2 C 10,6 C 92 % 0 lf 1013,7 hPa 0,0 l/m 0 min 0 min 68 W/m 8,4 km/h (2 Bft)
30.07.2015 07:22 11,2 C 10,6 C 92 % 0 lf 1013,7 hPa 0,0 l/m 0 min 0 min 63 W/m 10,5 km/h (2 Bft)
30.07.2015 07:24 11,2 C 10,6 C 92 % 0 lf 1013,7 hPa 0,0 l/m 0 min 0 min 90 W/m 10,5 km/h (2 Bft)
30.07.2015 07:26 11,2 C 10,6 C 92 % 0 lf 1013,7 hPa 0,0 l/m 2 min 0 min 160 W/m 16,7 km/h (3 Bft)
30.07.2015 07:28 11,3 C 10,6 C 92 % 0 lf 1013,7 hPa 0,0 l/m 2 min 0 min 182 W/m 12,6 km/h (3 Bft)
30.07.2015 07:30 11,3 C 10,6 C 92 % 0 lf 1013,7 hPa 0,0 l/m 2 min 0 min 198 W/m 12,6 km/h (3 Bft)
30.07.2015 07:32 11,3 C 10,6 C 92 % 0 lf 1013,7 hPa 0,0 l/m 2 min 0 min 197 W/m 14,6 km/h (3 Bft)
30.07.2015 07:34 11,3 C 11,1 C 92 % 0 lf 1013,7 hPa 0,0 l/m 2 min 0 min 181 W/m 12,6 km/h (3 Bft)
30.07.2015 07:36 11,4 C 11,1 C 92 % 0 lf 1013,7 hPa 0,0 l/m 2 min 0 min 154 W/m 10,5 km/h (2 Bft)
30.07.2015 07:38 11,4 C 11,1 C 92 % 0 lf 1013,8 hPa 0,0 l/m 2 min 0 min 188 W/m 12,6 km/h (3 Bft)
30.07.2015 07:40 11,4 C 11,1 C 92 % 0 lf 1013,7 hPa 0,0 l/m 2 min 0 min 213 W/m 12,6 km/h (3 Bft)
30.07.2015 07:42 11,5 C 11,1 C 93 % 0 lf 1013,7 hPa 0,0 l/m 2 min 0 min 216 W/m 10,5 km/h (2 Bft)
30.07.2015 07:44 11,5 C 11,1 C 93 % 0 lf 1013,8 hPa 0,0 l/m 2 min 0 min 220 W/m 10,5 km/h (2 Bft)
30.07.2015 07:46 11,6 C 11,1 C 93 % 0 lf 1013,7 hPa 0,0 l/m 2 min 0 min 223 W/m 14,6 km/h (3 Bft)
30.07.2015 07:48 11,6 C 11,1 C 93 % 0 lf 1013,8 hPa 0,0 l/m 2 min 0 min 232 W/m 12,6 km/h (3 Bft)
30.07.2015 07:50 11,6 C 11,1 C 93 % 0 lf 1013,8 hPa 0,0 l/m 2 min 0 min 237 W/m 14,6 km/h (3 Bft)
30.07.2015 07:52 11,7 C 11,1 C 93 % 0 lf 1013,8 hPa 0,0 l/m 2 min 0 min 220 W/m 12,6 km/h (3 Bft)
30.07.2015 07:54 11,7 C 11,1 C 93 % 0 lf 1013,8 hPa 0,0 l/m 2 min 0 min 245 W/m 12,6 km/h (3 Bft)
30.07.2015 07:56 11,7 C 11,1 C 93 % 0 lf 1013,8 hPa 0,0 l/m 2 min 0 min 212 W/m 14,6 km/h (3 Bft)
30.07.2015 07:58 11,8 C 11,7 C 92 % 0 lf 1013,9 hPa 0,0 l/m 2 min 0 min 185 W/m 12,6 km/h (3 Bft)
30.07.2015 08:00 11,8 C 11,7 C 92 % 0 lf 1013,9 hPa 0,0 l/m 2 min 0 min 234 W/m 12,6 km/h (3 Bft)
30.07.2015 08:02 11,9 C 11,7 C 93 % 0 lf 1013,9 hPa 0,0 l/m 2 min 0 min 218 W/m 12,6 km/h (3 Bft)
30.07.2015 08:04 11,9 C 11,7 C 93 % 0 lf 1013,9 hPa 0,0 l/m 2 min 0 min 170 W/m 12,6 km/h (3 Bft)
30.07.2015 08:06 11,9 C 11,7 C 93 % 0 lf 1014,0 hPa 0,0 l/m 2 min 0 min 275 W/m 10,5 km/h (2 Bft)
30.07.2015 08:08 12,0 C 11,7 C 93 % 0 lf 1014,0 hPa 0,0 l/m 2 min 0 min 276 W/m 10,5 km/h (2 Bft)
30.07.2015 08:10 12,0 C 11,7 C 93 % 0 lf 1014,0 hPa 0,0 l/m 2 min 0 min 288 W/m 12,6 km/h (3 Bft)
30.07.2015 08:12 12,1 C 11,7 C 92 % 0 lf 1014,0 hPa 0,0 l/m 2 min 0 min 304 W/m 10,5 km/h (2 Bft)
30.07.2015 08:14 12,1 C 11,7 C 92 % 0 lf 1014,0 hPa 0,0 l/m 2 min 0 min 302 W/m 6,3 km/h (2 Bft)
30.07.2015 08:16 12,2 C 11,7 C 92 % 0 lf 1014,0 hPa 0,0 l/m 2 min 0 min 304 W/m 8,4 km/h (2 Bft)
30.07.2015 08:18 12,2 C 11,7 C 92 % 0 lf 1014,0 hPa 0,0 l/m 2 min 0 min 308 W/m 10,5 km/h (2 Bft)
30.07.2015 08:20 12,2 C 11,7 C 92 % 0 lf 1014,0 hPa 0,0 l/m 2 min 0 min 311 W/m 10,5 km/h (2 Bft)
30.07.2015 08:22 12,3 C 11,7 C 92 % 0 lf 1014,0 hPa 0,0 l/m 2 min 0 min 319 W/m 12,6 km/h (3 Bft)
30.07.2015 08:24 12,3 C 12,2 C 92 % 0 lf 1014,0 hPa 0,0 l/m 2 min 0 min 325 W/m 10,5 km/h (2 Bft)
30.07.2015 08:26 12,4 C 12,2 C 92 % 0 lf 1014,0 hPa 0,0 l/m 2 min 0 min 328 W/m 12,6 km/h (3 Bft)
30.07.2015 08:28 12,4 C 12,2 C 92 % 0 lf 1014,1 hPa 0,0 l/m 2 min 0 min 332 W/m 6,3 km/h (2 Bft)
30.07.2015 08:30 12,4 C 12,2 C 92 % 0 lf 1014,1 hPa 0,0 l/m 2 min 0 min 337 W/m 6,3 km/h (2 Bft)
30.07.2015 08:32 12,5 C 12,2 C 92 % 0 lf 1014,1 hPa 0,0 l/m 2 min 0 min 341 W/m 16,7 km/h (3 Bft)
30.07.2015 08:34 12,6 C 12,2 C 92 % 0 lf 1014,0 hPa 0,0 l/m 2 min 0 min 338 W/m 16,7 km/h (3 Bft)
30.07.2015 08:36 12,6 C 12,2 C 92 % 0 lf 1014,0 hPa 0,0 l/m 2 min 0 min 342 W/m 12,6 km/h (3 Bft)
30.07.2015 08:38 12,7 C 12,2 C 92 % 0 lf 1014,1 hPa 0,0 l/m 2 min 0 min 353 W/m 12,6 km/h (3 Bft)
30.07.2015 08:40 12,7 C 12,2 C 91 % 0 lf 1014,0 hPa 0,0 l/m 2 min 0 min 374 W/m 16,7 km/h (3 Bft)
30.07.2015 08:42 12,8 C 12,2 C 91 % 0 lf 1014,1 hPa 0,0 l/m 2 min 0 min 401 W/m 12,6 km/h (3 Bft)
30.07.2015 08:44 12,9 C 12,8 C 91 % 0 lf 1014,1 hPa 0,0 l/m 2 min 0 min 342 W/m 16,7 km/h (3 Bft)
30.07.2015 08:46 13,0 C 12,8 C 91 % 0 lf 1014,1 hPa 0,0 l/m 2 min 0 min 357 W/m 14,6 km/h (3 Bft)
30.07.2015 08:48 13,1 C 12,8 C 91 % 0 lf 1014,1 hPa 0,0 l/m 2 min 0 min 417 W/m 14,6 km/h (3 Bft)
30.07.2015 08:50 13,2 C 12,8 C 91 % 0 lf 1014,1 hPa 0,0 l/m 2 min 0 min 463 W/m 14,6 km/h (3 Bft)
30.07.2015 08:52 13,3 C 13,3 C 91 % 0 lf 1014,1 hPa 0,0 l/m 2 min 0 min 441 W/m 14,6 km/h (3 Bft)
30.07.2015 08:54 13,4 C 13,3 C 90 % 0 lf 1014,2 hPa 0,0 l/m 2 min 0 min 348 W/m 16,7 km/h (3 Bft)
30.07.2015 08:56 13,5 C 13,9 C 90 % 0 lf 1014,2 hPa 0,0 l/m 2 min 0 min 487 W/m 10,5 km/h (2 Bft)
30.07.2015 08:58 13,7 C 13,9 C 90 % 0 lf 1014,1 hPa 0,0 l/m 2 min 0 min 519 W/m 8,4 km/h (2 Bft)
30.07.2015 09:00 13,8 C 13,9 C 90 % 0 lf 1014,2 hPa 0,0 l/m 2 min 0 min 289 W/m 10,5 km/h (2 Bft)
30.07.2015 09:02 13,9 C 13,3 C 90 % 0 lf 1014,2 hPa 0,0 l/m 0 min 0 min 134 W/m 12,6 km/h (3 Bft)
30.07.2015 09:04 13,9 C 13,3 C 89 % 0 lf 1014,2 hPa 0,0 l/m 0 min 0 min 127 W/m 12,6 km/h (3 Bft)
30.07.2015 09:06 14,0 C 13,3 C 89 % 0 lf 1014,3 hPa 0,0 l/m 0 min 0 min 139 W/m 10,5 km/h (2 Bft)
30.07.2015 09:08 14,2 C 13,3 C 88 % 0 lf 1014,4 hPa 0,0 l/m 2 min 0 min 407 W/m 8,4 km/h (2 Bft)
30.07.2015 09:10 14,2 C 13,3 C 88 % 0 lf 1014,3 hPa 0,0 l/m 2 min 0 min 480 W/m 10,5 km/h (2 Bft)
30.07.2015 09:12 14,2 C 13,3 C 87 % 0 lf 1014,3 hPa 0,0 l/m 2 min 0 min 488 W/m 12,6 km/h (3 Bft)
30.07.2015 09:14 14,3 C 13,9 C 87 % 0 lf 1014,3 hPa 0,0 l/m 2 min 0 min 513 W/m 8,4 km/h (2 Bft)
30.07.2015 09:16 14,5 C 13,9 C 87 % 0 lf 1014,4 hPa 0,0 l/m 2 min 0 min 526 W/m 12,6 km/h (3 Bft)
30.07.2015 09:18 14,6 C 14,4 C 87 % 0 lf 1014,4 hPa 0,0 l/m 2 min 0 min 526 W/m 14,6 km/h (3 Bft)
30.07.2015 09:20 14,7 C 14,4 C 86 % 0 lf 1014,4 hPa 0,0 l/m 2 min 0 min 457 W/m 23,0 km/h (4 Bft)
30.07.2015 09:22 14,8 C 14,4 C 86 % 0 lf 1014,4 hPa 0,0 l/m 2 min 0 min 374 W/m 16,7 km/h (3 Bft)
30.07.2015 09:24 14,9 C 14,4 C 85 % 0 lf 1014,5 hPa 0,0 l/m 2 min 0 min 333 W/m 12,6 km/h (3 Bft)
30.07.2015 09:26 15,1 C 15,0 C 85 % 0 lf 1014,4 hPa 0,0 l/m 2 min 0 min 303 W/m 12,6 km/h (3 Bft)
30.07.2015 09:28 15,1 C 15,0 C 84 % 0 lf 1014,5 hPa 0,0 l/m 2 min 0 min 267 W/m 14,6 km/h (3 Bft)
30.07.2015 09:30 15,2 C 14,4 C 84 % 0 lf 1014,5 hPa 0,0 l/m 0 min 0 min 235 W/m 16,7 km/h (3 Bft)
30.07.2015 09:32 15,3 C 14,4 C 83 % 0 lf 1014,4 hPa 0,0 l/m 0 min 0 min 202 W/m 23,0 km/h (4 Bft)
30.07.2015 09:34 15,3 C 14,4 C 83 % 0 lf 1014,6 hPa 0,0 l/m 0 min 0 min 207 W/m 16,7 km/h (3 Bft)
30.07.2015 09:36 15,3 C 14,4 C 82 % 0 lf 1014,6 hPa 0,0 l/m 0 min 0 min 249 W/m 10,5 km/h (2 Bft)
30.07.2015 09:38 15,4 C 15,0 C 83 % 0 lf 1014,5 hPa 0,0 l/m 2 min 0 min 273 W/m 10,5 km/h (2 Bft)
30.07.2015 09:40 15,4 C 15,0 C 83 % 0 lf 1014,6 hPa 0,0 l/m 2 min 0 min 325 W/m 12,6 km/h (3 Bft)
30.07.2015 09:42 15,5 C 15,0 C 83 % 0 lf 1014,6 hPa 0,0 l/m 2 min 0 min 310 W/m 14,6 km/h (3 Bft)
30.07.2015 09:44 15,6 C 15,0 C 82 % 0 lf 1014,6 hPa 0,0 l/m 2 min 0 min 286 W/m 14,6 km/h (3 Bft)
30.07.2015 09:46 15,6 C 15,0 C 82 % 0 lf 1014,6 hPa 0,0 l/m 0 min 0 min 266 W/m 23,0 km/h (4 Bft)
30.07.2015 09:48 15,6 C 15,0 C 81 % 0 lf 1014,6 hPa 0,0 l/m 2 min 0 min 296 W/m 18,8 km/h (3 Bft)
30.07.2015 09:50 15,7 C 15,0 C 81 % 0 lf 1014,6 hPa 0,0 l/m 2 min 0 min 307 W/m 18,8 km/h (3 Bft)
30.07.2015 09:52 15,7 C 15,6 C 81 % 0 lf 1014,6 hPa 0,0 l/m 2 min 0 min 349 W/m 14,6 km/h (3 Bft)
30.07.2015 09:54 15,8 C 15,6 C 81 % 0 lf 1014,7 hPa 0,0 l/m 2 min 0 min 349 W/m 14,6 km/h (3 Bft)
30.07.2015 09:56 15,8 C 15,6 C 81 % 0 lf 1014,7 hPa 0,0 l/m 2 min 0 min 311 W/m 18,8 km/h (3 Bft)
30.07.2015 09:58 15,8 C 15,0 C 80 % 0 lf 1014,6 hPa 0,0 l/m 0 min 0 min 277 W/m 14,6 km/h (3 Bft)
30.07.2015 10:00 15,8 C 15,6 C 80 % 0 lf 1014,6 hPa 0,0 l/m 0 min 0 min 262 W/m 12,6 km/h (3 Bft)
30.07.2015 10:02 15,9 C 15,6 C 80 % 0 lf 1014,6 hPa 0,0 l/m 0 min 0 min 248 W/m 14,6 km/h (3 Bft)
30.07.2015 10:04 15,9 C 15,6 C 80 % 0 lf 1014,7 hPa 0,0 l/m 0 min 0 min 249 W/m 12,6 km/h (3 Bft)
30.07.2015 10:06 15,9 C 15,6 C 80 % 0 lf 1014,6 hPa 0,0 l/m 0 min 0 min 273 W/m 18,8 km/h (3 Bft)
30.07.2015 10:08 15,9 C 15,6 C 80 % 0 lf 1014,6 hPa 0,0 l/m 2 min 0 min 296 W/m 18,8 km/h (3 Bft)
30.07.2015 10:10 16,0 C 15,6 C 80 % 0 lf 1014,7 hPa 0,0 l/m 2 min 0 min 322 W/m 14,6 km/h (3 Bft)
30.07.2015 10:12 16,0 C 15,6 C 80 % 0 lf 1014,6 hPa 0,0 l/m 2 min 0 min 338 W/m 16,7 km/h (3 Bft)
30.07.2015 10:14 16,1 C 15,6 C 80 % 0 lf 1014,6 hPa 0,0 l/m 2 min 0 min 345 W/m 16,7 km/h (3 Bft)
30.07.2015 10:16 16,1 C 15,6 C 80 % 0 lf 1014,7 hPa 0,0 l/m 2 min 0 min 354 W/m 16,7 km/h (3 Bft)
30.07.2015 10:18 16,1 C 16,1 C 80 % 0 lf 1014,6 hPa 0,0 l/m 2 min 0 min 368 W/m 18,8 km/h (3 Bft)
30.07.2015 10:20 16,2 C 16,7 C 79 % 0 lf 1014,6 hPa 0,0 l/m 2 min 0 min 377 W/m 14,6 km/h (3 Bft)
30.07.2015 10:22 16,2 C 16,7 C 80 % 0 lf 1014,6 hPa 0,0 l/m 2 min 0 min 382 W/m 16,7 km/h (3 Bft)
30.07.2015 10:24 16,3 C 16,7 C 80 % 0 lf 1014,6 hPa 0,0 l/m 2 min 0 min 377 W/m 16,7 km/h (3 Bft)
30.07.2015 10:26 16,3 C 16,1 C 79 % 0 lf 1014,7 hPa 0,0 l/m 2 min 0 min 316 W/m 14,6 km/h (3 Bft)
30.07.2015 10:28 16,4 C 16,1 C 79 % 0 lf 1014,7 hPa 0,0 l/m 0 min 0 min 301 W/m 14,6 km/h (3 Bft)
30.07.2015 10:30 16,4 C 16,1 C 78 % 0 lf 1014,7 hPa 0,0 l/m 2 min 0 min 315 W/m 12,6 km/h (3 Bft)
30.07.2015 10:32 16,4 C 16,1 C 78 % 0 lf 1014,6 hPa 0,0 l/m 2 min 0 min 334 W/m 20,9 km/h (4 Bft)
30.07.2015 10:34 16,4 C 15,6 C 77 % 0 lf 1014,7 hPa 0,0 l/m 0 min 0 min 315 W/m 20,9 km/h (4 Bft)
30.07.2015 10:36 16,4 C 15,6 C 77 % 0 lf 1014,7 hPa 0,0 l/m 0 min 0 min 283 W/m 16,7 km/h (3 Bft)
30.07.2015 10:38 16,4 C 15,6 C 77 % 0 lf 1014,6 hPa 0,0 l/m 0 min 0 min 297 W/m 16,7 km/h (3 Bft)
30.07.2015 10:40 16,4 C 15,6 C 77 % 0 lf 1014,7 hPa 0,0 l/m 2 min 0 min 352 W/m 23,0 km/h (4 Bft)
30.07.2015 10:42 16,4 C 16,1 C 76 % 0 lf 1014,7 hPa 0,0 l/m 2 min 0 min 431 W/m 18,8 km/h (3 Bft)
30.07.2015 10:44 16,4 C 16,7 C 77 % 0 lf 1014,7 hPa 0,0 l/m 2 min 0 min 462 W/m 14,6 km/h (3 Bft)
30.07.2015 10:46 16,5 C 16,7 C 77 % 0 lf 1014,7 hPa 0,0 l/m 2 min 0 min 443 W/m 18,8 km/h (3 Bft)
30.07.2015 10:48 16,6 C 16,7 C 77 % 0 lf 1014,6 hPa 0,0 l/m 2 min 0 min 352 W/m 16,7 km/h (3 Bft)
30.07.2015 10:50 16,6 C 16,7 C 77 % 0 lf 1014,6 hPa 0,0 l/m 2 min 0 min 349 W/m 16,7 km/h (3 Bft)
30.07.2015 10:52 16,6 C 16,7 C 76 % 0 lf 1014,7 hPa 0,0 l/m 2 min 0 min 362 W/m 12,6 km/h (3 Bft)
30.07.2015 10:54 16,6 C 16,1 C 75 % 0 lf 1014,6 hPa 0,0 l/m 2 min 0 min 340 W/m 10,5 km/h (2 Bft)
30.07.2015 10:56 16,7 C 16,1 C 75 % 0 lf 1014,6 hPa 0,0 l/m 0 min 0 min 302 W/m 14,6 km/h (3 Bft)
30.07.2015 10:58 16,7 C 16,1 C 75 % 0 lf 1014,6 hPa 0,0 l/m 0 min 0 min 314 W/m 16,7 km/h (3 Bft)
30.07.2015 11:00 16,7 C 16,1 C 75 % 0 lf 1014,7 hPa 0,0 l/m 0 min 0 min 327 W/m 14,6 km/h (3 Bft)
30.07.2015 11:02 16,7 C 16,1 C 75 % 0 lf 1014,7 hPa 0,0 l/m 2 min 0 min 343 W/m 16,7 km/h (3 Bft)
30.07.2015 11:04 16,7 C 16,7 C 75 % 0 lf 1014,7 hPa 0,0 l/m 2 min 0 min 361 W/m 10,5 km/h (2 Bft)
30.07.2015 11:06 16,7 C 16,7 C 75 % 0 lf 1014,7 hPa 0,0 l/m 0 min 0 min 341 W/m 10,5 km/h (2 Bft)
30.07.2015 11:08 16,8 C 16,7 C 74 % 0 lf 1014,7 hPa 0,0 l/m 0 min 0 min 313 W/m 14,6 km/h (3 Bft)
30.07.2015 11:10 16,8 C 16,7 C 74 % 0 lf 1014,7 hPa 0,0 l/m 0 min 0 min 315 W/m 14,6 km/h (3 Bft)
30.07.2015 11:12 16,8 C 16,7 C 74 % 0 lf 1014,7 hPa 0,0 l/m 0 min 0 min 326 W/m 10,5 km/h (2 Bft)
30.07.2015 11:14 16,8 C 16,7 C 74 % 0 lf 1014,7 hPa 0,0 l/m 2 min 0 min 355 W/m 16,7 km/h (3 Bft)
30.07.2015 11:16 16,8 C 16,7 C 72 % 0 lf 1014,7 hPa 0,0 l/m 2 min 0 min 371 W/m 20,9 km/h (4 Bft)
30.07.2015 11:18 16,8 C 16,7 C 72 % 0 lf 1014,7 hPa 0,0 l/m 2 min 0 min 358 W/m 16,7 km/h (3 Bft)
30.07.2015 11:20 16,9 C 16,7 C 73 % 0 lf 1014,8 hPa 0,0 l/m 2 min 0 min 373 W/m 18,8 km/h (3 Bft)
30.07.2015 11:22 16,9 C 16,7 C 72 % 0 lf 1014,7 hPa 0,0 l/m 2 min 0 min 462 W/m 16,7 km/h (3 Bft)
30.07.2015 11:24 16,9 C 16,7 C 72 % 0 lf 1014,7 hPa 0,0 l/m 2 min 0 min 471 W/m 23,0 km/h (4 Bft)
30.07.2015 11:26 16,9 C 17,2 C 72 % 0 lf 1014,8 hPa 0,0 l/m 2 min 0 min 381 W/m 16,7 km/h (3 Bft)
30.07.2015 11:28 17,1 C 18,3 C 75 % 0 lf 1014,8 hPa 0,0 l/m 2 min 0 min 881 W/m 12,6 km/h (3 Bft)
30.07.2015 11:30 17,2 C 18,9 C 75 % 0 lf 1014,7 hPa 0,0 l/m 2 min 0 min 969 W/m 18,8 km/h (3 Bft)
30.07.2015 11:32 17,4 C 18,3 C 75 % 0 lf 1014,8 hPa 0,0 l/m 2 min 0 min 819 W/m 16,7 km/h (3 Bft)
30.07.2015 11:34 17,5 C 17,8 C 72 % 0 lf 1014,8 hPa 0,0 l/m 0 min 0 min 325 W/m 12,6 km/h (3 Bft)
30.07.2015 11:36 17,6 C 18,9 C 72 % 0 lf 1014,8 hPa 0,0 l/m 0 min 0 min 339 W/m 14,6 km/h (3 Bft)
30.07.2015 11:38 17,8 C 20,0 C 73 % 0 lf 1014,7 hPa 0,0 l/m 2 min 0 min 686 W/m 18,8 km/h (3 Bft)
30.07.2015 11:40 17,9 C 21,1 C 73 % 0 lf 1014,7 hPa 0,0 l/m 2 min 0 min 926 W/m 18,8 km/h (3 Bft)
30.07.2015 11:42 18,2 C 21,7 C 71 % 0 lf 1014,8 hPa 0,0 l/m 2 min 0 min 928 W/m 18,8 km/h (3 Bft)
30.07.2015 11:44 18,3 C 21,1 C 70 % 0 lf 1014,7 hPa 0,0 l/m 2 min 0 min 980 W/m 23,0 km/h (4 Bft)
30.07.2015 11:46 18,5 C 22,2 C 70 % 0 lf 1014,7 hPa 0,0 l/m 2 min 0 min 1020 W/m 14,6 km/h (3 Bft)
30.07.2015 11:48 18,7 C 22,2 C 70 % 0 lf 1014,7 hPa 0,0 l/m 2 min 0 min 982 W/m 18,8 km/h (3 Bft)
30.07.2015 11:50 18,9 C 22,8 C 68 % 0 lf 1014,7 hPa 0,0 l/m 2 min 0 min 1039 W/m 23,0 km/h (4 Bft)
30.07.2015 11:52 19,1 C 22,8 C 66 % 0 lf 1014,8 hPa 0,0 l/m 2 min 0 min 1038 W/m 23,0 km/h (4 Bft)
30.07.2015 11:54 19,2 C 21,1 C 65 % 0 lf 1014,7 hPa 0,0 l/m 2 min 0 min 1016 W/m 18,8 km/h (3 Bft)
30.07.2015 11:56 19,2 C 20,0 C 65 % 0 lf 1014,7 hPa 0,0 l/m 2 min 0 min 831 W/m 23,0 km/h (4 Bft)
30.07.2015 11:58 19,2 C 20,0 C 66 % 0 lf 1014,8 hPa 0,0 l/m 0 min 0 min 332 W/m 20,9 km/h (4 Bft)
30.07.2015 12:00 19,3 C 20,6 C 66 % 0 lf 1014,7 hPa 0,0 l/m 0 min 0 min 332 W/m 16,7 km/h (3 Bft)
30.07.2015 12:02 19,3 C 20,0 C 66 % 0 lf 1014,7 hPa 0,0 l/m 0 min 0 min 373 W/m 12,6 km/h (3 Bft)
30.07.2015 12:05 19,4 C 19,4 C 66 % 0 lf 1014,8 hPa 0,0 l/m 0 min 0 min 294 W/m 16,7 km/h (3 Bft)
30.07.2015 12:06 19,4 C 19,4 C 65 % 0 lf 1014,8 hPa 0,0 l/m 0 min 0 min 334 W/m 16,7 km/h (3 Bft)
30.07.2015 12:08 19,4 C 19,4 C 66 % 0 lf 1014,8 hPa 0,0 l/m 0 min 0 min 294 W/m 18,8 km/h (3 Bft)
30.07.2015 12:10 19,4 C 20,0 C 65 % 0 lf 1014,8 hPa 0,0 l/m 2 min 0 min 496 W/m 18,8 km/h (3 Bft)
30.07.2015 12:12 19,5 C 21,1 C 64 % 0 lf 1014,7 hPa 0,0 l/m 2 min 0 min 903 W/m 20,9 km/h (4 Bft)
30.07.2015 12:14 19,6 C 21,7 C 65 % 0 lf 1014,7 hPa 0,0 l/m 2 min 0 min 935 W/m 16,7 km/h (3 Bft)
30.07.2015 12:16 19,7 C 21,7 C 63 % 0 lf 1014,8 hPa 0,0 l/m 2 min 0 min 947 W/m 16,7 km/h (3 Bft)
30.07.2015 12:18 19,7 C 21,1 C 63 % 0 lf 1014,8 hPa 0,0 l/m 2 min 0 min 947 W/m 12,6 km/h (3 Bft)
30.07.2015 12:20 19,8 C 21,7 C 63 % 0 lf 1014,8 hPa 0,0 l/m 2 min 0 min 947 W/m 18,8 km/h (3 Bft)
30.07.2015 12:22 19,9 C 22,8 C 63 % 0 lf 1014,7 hPa 0,0 l/m 2 min 0 min 398 W/m 14,6 km/h (3 Bft)
30.07.2015 12:24 20,1 C 23,9 C 62 % 0 lf 1014,8 hPa 0,0 l/m 2 min 0 min 697 W/m 16,7 km/h (3 Bft)
30.07.2015 12:26 20,2 C 24,4 C 62 % 0 lf 1014,8 hPa 0,0 l/m 2 min 0 min 978 W/m 27,2 km/h (4 Bft)
30.07.2015 12:28 20,3 C 23,9 C 60 % 0 lf 1014,7 hPa 0,0 l/m 2 min 0 min 984 W/m 18,8 km/h (3 Bft)
30.07.2015 12:30 20,4 C 22,8 C 60 % 0 lf 1014,8 hPa 0,0 l/m 2 min 0 min 697 W/m 14,6 km/h (3 Bft)
30.07.2015 12:32 20,4 C 22,8 C 59 % 0 lf 1014,7 hPa 0,0 l/m 2 min 0 min 706 W/m 16,7 km/h (3 Bft)
30.07.2015 12:34 20,6 C 22,8 C 58 % 0 lf 1014,7 hPa 0,0 l/m 2 min 0 min 1000 W/m 18,8 km/h (3 Bft)
30.07.2015 12:36 20,6 C 22,8 C 58 % 0 lf 1014,8 hPa 0,0 l/m 2 min 0 min 981 W/m 16,7 km/h (3 Bft)
30.07.2015 12:38 20,7 C 22,2 C 58 % 0 lf 1014,8 hPa 0,0 l/m 2 min 0 min 981 W/m 14,6 km/h (3 Bft)
30.07.2015 12:40 20,7 C 21,1 C 60 % 0 lf 1014,8 hPa 0,0 l/m 2 min 0 min 423 W/m 14,6 km/h (3 Bft)
30.07.2015 12:42 20,7 C 20,0 C 58 % 0 lf 1014,8 hPa 0,0 l/m 0 min 0 min 285 W/m 16,7 km/h (3 Bft)
30.07.2015 12:44 20,7 C 19,4 C 56 % 0 lf 1014,8 hPa 0,0 l/m 0 min 0 min 294 W/m 18,8 km/h (3 Bft)
30.07.2015 12:46 20,6 C 19,4 C 57 % 0 lf 1014,8 hPa 0,0 l/m 0 min 0 min 309 W/m 14,6 km/h (3 Bft)
30.07.2015 12:48 20,4 C 19,4 C 58 % 0 lf 1014,8 hPa 0,0 l/m 0 min 0 min 273 W/m 14,6 km/h (3 Bft)
30.07.2015 12:50 20,3 C 18,9 C 58 % 0 lf 1014,8 hPa 0,0 l/m 0 min 0 min 266 W/m 20,9 km/h (4 Bft)
30.07.2015 12:52 20,2 C 18,3 C 59 % 0 lf 1014,8 hPa 0,0 l/m 0 min 0 min 319 W/m 18,8 km/h (3 Bft)
30.07.2015 12:54 20,1 C 18,9 C 60 % 0 lf 1014,8 hPa 0,0 l/m 2 min 0 min 498 W/m 18,8 km/h (3 Bft)
30.07.2015 12:56 20,1 C 19,4 C 59 % 0 lf 1014,8 hPa 0,0 l/m 2 min 0 min 977 W/m 16,7 km/h (3 Bft)
30.07.2015 12:58 20,1 C 19,4 C 60 % 0 lf 1014,8 hPa 0,0 l/m 2 min 0 min 672 W/m 14,6 km/h (3 Bft)
30.07.2015 13:00 20,1 C 20,0 C 60 % 0 lf 1014,8 hPa 0,0 l/m 2 min 0 min 682 W/m 10,5 km/h (2 Bft)
30.07.2015 13:02 20,1 C 20,0 C 59 % 0 lf 1014,8 hPa 0,0 l/m 2 min 0 min 854 W/m 16,7 km/h (3 Bft)
30.07.2015 13:04 20,1 C 20,0 C 61 % 0 lf 1014,8 hPa 0,0 l/m 2 min 0 min 871 W/m 16,7 km/h (3 Bft)
30.07.2015 13:06 20,1 C 19,4 C 59 % 0 lf 1014,8 hPa 0,0 l/m 2 min 0 min 478 W/m 23,0 km/h (4 Bft)
30.07.2015 13:08 20,1 C 18,9 C 60 % 0 lf 1014,8 hPa 0,0 l/m 0 min 0 min 260 W/m 18,8 km/h (3 Bft)
30.07.2015 13:10 20,1 C 18,3 C 62 % 0 lf 1014,8 hPa 0,0 l/m 0 min 0 min 288 W/m 16,7 km/h (3 Bft)
30.07.2015 13:12 20,1 C 19,4 C 62 % 0 lf 1014,8 hPa 0,0 l/m 2 min 0 min 534 W/m 10,5 km/h (2 Bft)
30.07.2015 13:14 20,1 C 20,0 C 63 % 0 lf 1014,8 hPa 0,0 l/m 2 min 0 min 1015 W/m 18,8 km/h (3 Bft)
30.07.2015 13:16 20,2 C 20,0 C 63 % 0 lf 1014,8 hPa 0,0 l/m 2 min 0 min 1030 W/m 20,9 km/h (4 Bft)
30.07.2015 13:18 20,3 C 20,6 C 62 % 0 lf 1014,8 hPa 0,0 l/m 2 min 0 min 959 W/m 10,5 km/h (2 Bft)
30.07.2015 13:20 20,3 C 20,0 C 62 % 0 lf 1014,8 hPa 0,0 l/m 2 min 0 min 664 W/m 12,6 km/h (3 Bft)
30.07.2015 13:22 20,4 C 20,0 C 62 % 0 lf 1014,8 hPa 0,0 l/m 2 min 0 min 665 W/m 20,9 km/h (4 Bft)
30.07.2015 13:24 20,5 C 20,0 C 62 % 0 lf 1014,8 hPa 0,0 l/m 2 min 0 min 958 W/m 20,9 km/h (4 Bft)
30.07.2015 13:26 20,6 C 20,0 C 61 % 0 lf 1014,8 hPa 0,0 l/m 2 min 0 min 454 W/m 16,7 km/h (3 Bft)
30.07.2015 13:28 20,7 C 20,6 C 61 % 0 lf 1014,8 hPa 0,0 l/m 2 min 0 min 985 W/m 16,7 km/h (3 Bft)
30.07.2015 13:30 20,7 C 20,6 C 60 % 0 lf 1014,8 hPa 0,0 l/m 2 min 0 min 999 W/m 20,9 km/h (4 Bft)
30.07.2015 13:32 20,8 C 20,6 C 59 % 0 lf 1014,9 hPa 0,0 l/m 2 min 0 min 949 W/m 29,3 km/h (5 Bft)
30.07.2015 13:34 20,9 C 20,6 C 60 % 0 lf 1014,9 hPa 0,0 l/m 2 min 0 min 949 W/m 23,0 km/h (4 Bft)
30.07.2015 13:36 21,0 C 20,6 C 59 % 0 lf 1014,9 hPa 0,0 l/m 2 min 0 min 888 W/m 20,9 km/h (4 Bft)
30.07.2015 13:38 21,0 C 20,6 C 59 % 0 lf 1014,9 hPa 0,0 l/m 2 min 0 min 720 W/m 14,6 km/h (3 Bft)
30.07.2015 13:40 21,0 C 20,6 C 60 % 0 lf 1014,9 hPa 0,0 l/m 2 min 0 min 683 W/m 12,6 km/h (3 Bft)
30.07.2015 13:42 21,1 C 20,6 C 60 % 0 lf 1014,9 hPa 0,0 l/m 2 min 0 min 490 W/m 16,7 km/h (3 Bft)
30.07.2015 13:44 21,1 C 20,6 C 58 % 0 lf 1015,0 hPa 0,0 l/m 2 min 0 min 469 W/m 16,7 km/h (3 Bft)
30.07.2015 13:46 21,1 C 20,0 C 58 % 0 lf 1014,9 hPa 0,0 l/m 2 min 0 min 450 W/m 23,0 km/h (4 Bft)
30.07.2015 13:48 21,1 C 20,0 C 57 % 0 lf 1014,9 hPa 0,0 l/m 2 min 0 min 420 W/m 16,7 km/h (3 Bft)
30.07.2015 13:50 21,0 C 20,0 C 59 % 0 lf 1015,0 hPa 0,0 l/m 0 min 0 min 352 W/m 16,7 km/h (3 Bft)
30.07.2015 13:52 21,0 C 19,4 C 58 % 0 lf 1015,1 hPa 0,0 l/m 0 min 0 min 353 W/m 27,2 km/h (4 Bft)
30.07.2015 13:54 20,9 C 19,4 C 58 % 0 lf 1015,0 hPa 0,0 l/m 0 min 0 min 375 W/m 20,9 km/h (4 Bft)
30.07.2015 13:56 20,8 C 19,4 C 57 % 0 lf 1015,1 hPa 0,0 l/m 0 min 0 min 376 W/m 37,7 km/h (5 Bft)
30.07.2015 13:58 20,7 C 18,3 C 59 % 0 lf 1015,2 hPa 0,0 l/m 0 min 0 min 324 W/m 29,3 km/h (5 Bft)
30.07.2015 14:00 20,4 C 17,8 C 60 % 0 lf 1015,2 hPa 0,0 l/m 0 min 0 min 335 W/m 39,7 km/h (6 Bft)
30.07.2015 14:02 19,9 C 16,7 C 62 % 0 lf 1015,4 hPa 0,0 l/m 0 min 0 min 342 W/m 39,7 km/h (6 Bft)
30.07.2015 14:04 19,4 C 16,7 C 62 % 0 lf 1015,4 hPa 0,0 l/m 0 min 0 min 345 W/m 37,7 km/h (5 Bft)
30.07.2015 14:06 19,1 C 16,7 C 64 % 0 lf 1015,4 hPa 0,0 l/m 0 min 0 min 273 W/m 41,8 km/h (6 Bft)
30.07.2015 14:08 18,7 C 16,1 C 65 % 0 lf 1015,6 hPa 0,0 l/m 0 min 0 min 229 W/m 31,4 km/h (5 Bft)
30.07.2015 14:10 18,3 C 15,6 C 66 % 0 lf 1015,5 hPa 0,0 l/m 0 min 0 min 225 W/m 33,5 km/h (5 Bft)
30.07.2015 14:12 18,1 C 15,6 C 67 % 0 lf 1015,5 hPa 0,0 l/m 0 min 0 min 226 W/m 20,9 km/h (4 Bft)
30.07.2015 14:14 17,8 C 16,1 C 68 % 0 lf 1015,7 hPa 0,0 l/m 0 min 0 min 209 W/m 31,4 km/h (5 Bft)
30.07.2015 14:16 17,6 C 16,1 C 69 % 0 lf 1015,6 hPa 0,0 l/m 0 min 0 min 194 W/m 25,1 km/h (4 Bft)
30.07.2015 14:18 17,3 C 15,0 C 69 % 0 lf 1015,6 hPa 0,0 l/m 0 min 0 min 177 W/m 31,4 km/h (5 Bft)
30.07.2015 14:20 17,1 C 15,0 C 70 % 0 lf 1015,6 hPa 0,0 l/m 0 min 0 min 166 W/m 25,1 km/h (4 Bft)
30.07.2015 14:22 16,9 C 15,0 C 70 % 0 lf 1015,6 hPa 0,0 l/m 0 min 0 min 171 W/m 25,1 km/h (4 Bft)
30.07.2015 14:24 16,8 C 15,0 C 71 % 0 lf 1015,7 hPa 0,0 l/m 0 min 0 min 196 W/m 27,2 km/h (4 Bft)
30.07.2015 14:26 16,7 C 15,0 C 71 % 0 lf 1015,7 hPa 0,0 l/m 0 min 0 min 245 W/m 25,1 km/h (4 Bft)
30.07.2015 14:28 16,5 C 15,6 C 72 % 0 lf 1015,7 hPa 0,0 l/m 0 min 0 min 307 W/m 23,0 km/h (4 Bft)
30.07.2015 14:30 16,4 C 15,6 C 72 % 0 lf 1015,6 hPa 0,0 l/m 0 min 0 min 369 W/m 12,6 km/h (3 Bft)
30.07.2015 14:32 16,4 C 16,1 C 73 % 0 lf 1015,7 hPa 0,0 l/m 2 min 0 min 467 W/m 20,9 km/h (4 Bft)
30.07.2015 14:34 16,4 C 16,7 C 73 % 0 lf 1015,7 hPa 0,0 l/m 2 min 0 min 554 W/m 23,0 km/h (4 Bft)
30.07.2015 14:36 16,4 C 16,7 C 73 % 0 lf 1015,6 hPa 0,0 l/m 2 min 0 min 583 W/m 25,1 km/h (4 Bft)
30.07.2015 14:38 16,4 C 16,7 C 73 % 0 lf 1015,7 hPa 0,0 l/m 2 min 0 min 548 W/m 18,8 km/h (3 Bft)
30.07.2015 14:40 16,4 C 17,2 C 73 % 0 lf 1015,7 hPa 0,0 l/m 2 min 0 min 446 W/m 16,7 km/h (3 Bft)
30.07.2015 14:42 16,5 C 17,2 C 73 % 0 lf 1015,7 hPa 0,0 l/m 2 min 0 min 425 W/m 23,0 km/h (4 Bft)
30.07.2015 14:44 16,6 C 17,2 C 72 % 0 lf 1015,7 hPa 0,0 l/m 2 min 0 min 403 W/m 18,8 km/h (3 Bft)
30.07.2015 14:46 16,6 C 16,7 C 72 % 0 lf 1015,7 hPa 0,0 l/m 2 min 0 min 407 W/m 20,9 km/h (4 Bft)
30.07.2015 14:48 16,6 C 16,7 C 72 % 0 lf 1015,7 hPa 0,0 l/m 2 min 0 min 420 W/m 20,9 km/h (4 Bft)
30.07.2015 14:50 16,7 C 17,2 C 72 % 0 lf 1015,7 hPa 0,0 l/m 2 min 0 min 432 W/m 14,6 km/h (3 Bft)
30.07.2015 14:52 16,7 C 17,2 C 72 % 0 lf 1015,6 hPa 0,0 l/m 0 min 0 min 378 W/m 20,9 km/h (4 Bft)
30.07.2015 14:54 16,8 C 17,2 C 72 % 0 lf 1015,6 hPa 0,0 l/m 0 min 0 min 358 W/m 14,6 km/h (3 Bft)
30.07.2015 14:56 16,8 C 17,2 C 72 % 0 lf 1015,6 hPa 0,0 l/m 0 min 0 min 356 W/m 16,7 km/h (3 Bft)
30.07.2015 14:58 16,8 C 17,2 C 71 % 0 lf 1015,7 hPa 0,0 l/m 0 min 0 min 359 W/m 23,0 km/h (4 Bft)
30.07.2015 15:00 16,9 C 16,7 C 70 % 0 lf 1015,7 hPa 0,0 l/m 0 min 0 min 365 W/m 18,8 km/h (3 Bft)
30.07.2015 15:02 16,9 C 16,7 C 70 % 0 lf 1015,6 hPa 0,0 l/m 0 min 0 min 377 W/m 20,9 km/h (4 Bft)
30.07.2015 15:04 16,9 C 17,2 C 71 % 0 lf 1015,5 hPa 0,0 l/m 2 min 0 min 390 W/m 16,7 km/h (3 Bft)
30.07.2015 15:06 16,9 C 17,2 C 71 % 0 lf 1015,6 hPa 0,0 l/m 2 min 0 min 409 W/m 16,7 km/h (3 Bft)
30.07.2015 15:08 16,9 C 17,8 C 71 % 0 lf 1015,6 hPa 0,0 l/m 2 min 0 min 430 W/m 12,6 km/h (3 Bft)
30.07.2015 15:10 17,0 C 17,2 C 70 % 0 lf 1015,6 hPa 0,0 l/m 2 min 0 min 464 W/m 20,9 km/h (4 Bft)
30.07.2015 15:12 17,0 C 17,8 C 70 % 0 lf 1015,5 hPa 0,0 l/m 2 min 0 min 469 W/m 14,6 km/h (3 Bft)
30.07.2015 15:14 17,1 C 18,3 C 71 % 0 lf 1015,5 hPa 0,0 l/m 2 min 0 min 867 W/m 20,9 km/h (4 Bft)
30.07.2015 15:16 17,3 C 18,9 C 71 % 0 lf 1015,5 hPa 0,0 l/m 2 min 0 min 945 W/m 18,8 km/h (3 Bft)
30.07.2015 15:18 17,4 C 18,3 C 70 % 0 lf 1015,5 hPa 0,0 l/m 2 min 0 min 580 W/m 16,7 km/h (3 Bft)
30.07.2015 15:20 17,6 C 18,3 C 69 % 0 lf 1015,5 hPa 0,0 l/m 2 min 0 min 778 W/m 18,8 km/h (3 Bft)
30.07.2015 15:22 17,7 C 17,8 C 68 % 0 lf 1015,5 hPa 0,0 l/m 2 min 0 min 488 W/m 20,9 km/h (4 Bft)
30.07.2015 15:24 17,7 C 18,3 C 68 % 0 lf 1015,5 hPa 0,0 l/m 2 min 0 min 424 W/m 18,8 km/h (3 Bft)
30.07.2015 15:26 17,8 C 18,3 C 67 % 0 lf 1015,5 hPa 0,0 l/m 2 min 0 min 458 W/m 23,0 km/h (4 Bft)
30.07.2015 15:28 17,9 C 18,3 C 66 % 0 lf 1015,5 hPa 0,0 l/m 2 min 0 min 396 W/m 23,0 km/h (4 Bft)
30.07.2015 15:30 17,9 C 17,8 C 65 % 0 lf 1015,6 hPa 0,0 l/m 0 min 0 min 348 W/m 18,8 km/h (3 Bft)
30.07.2015 15:32 18,0 C 17,8 C 66 % 0 lf 1015,6 hPa 0,0 l/m 0 min 0 min 307 W/m 18,8 km/h (3 Bft)
30.07.2015 15:34 18,1 C 17,8 C 66 % 0 lf 1015,7 hPa 0,0 l/m 0 min 0 min 277 W/m 16,7 km/h (3 Bft)
30.07.2015 15:36 18,1 C 17,8 C 67 % 0 lf 1015,7 hPa 0,0 l/m 0 min 0 min 256 W/m 14,6 km/h (3 Bft)
30.07.2015 15:38 18,1 C 17,2 C 65 % 0 lf 1015,7 hPa 0,0 l/m 0 min 0 min 256 W/m 18,8 km/h (3 Bft)
30.07.2015 15:40 18,1 C 17,2 C 65 % 0 lf 1015,8 hPa 0,0 l/m 0 min 0 min 252 W/m 18,8 km/h (3 Bft)
30.07.2015 15:42 18,1 C 17,2 C 65 % 0 lf 1015,8 hPa 0,0 l/m 0 min 0 min 296 W/m 12,6 km/h (3 Bft)
30.07.2015 15:44 18,2 C 17,8 C 67 % 0 lf 1015,8 hPa 0,0 l/m 2 min 0 min 704 W/m 10,5 km/h (2 Bft)
30.07.2015 15:46 18,3 C 18,9 C 68 % 0 lf 1015,8 hPa 0,0 l/m 2 min 0 min 880 W/m 8,4 km/h (2 Bft)
30.07.2015 15:48 18,4 C 18,3 C 65 % 0 lf 1015,6 hPa 0,0 l/m 2 min 0 min 868 W/m 10,5 km/h (2 Bft)
30.07.2015 15:50 18,4 C 18,3 C 64 % 0 lf 1015,6 hPa 0,0 l/m 2 min 0 min 896 W/m 23,0 km/h (4 Bft)
30.07.2015 15:52 18,5 C 18,3 C 63 % 0 lf 1015,7 hPa 0,0 l/m 2 min 0 min 693 W/m 12,6 km/h (3 Bft)
30.07.2015 15:54 18,6 C 18,3 C 64 % 0 lf 1015,7 hPa 0,0 l/m 2 min 0 min 367 W/m 18,8 km/h (3 Bft)
30.07.2015 15:56 18,6 C 18,3 C 63 % 0 lf 1015,7 hPa 0,0 l/m 0 min 0 min 352 W/m 16,7 km/h (3 Bft)
30.07.2015 15:58 18,6 C 18,3 C 64 % 0 lf 1015,7 hPa 0,0 l/m 0 min 0 min 336 W/m 14,6 km/h (3 Bft)
30.07.2015 16:00 18,6 C 17,8 C 63 % 0 lf 1015,8 hPa 0,0 l/m 0 min 0 min 332 W/m 16,7 km/h (3 Bft)
30.07.2015 16:02 18,6 C 18,3 C 62 % 0 lf 1015,7 hPa 0,0 l/m 0 min 0 min 352 W/m 12,6 km/h (3 Bft)
30.07.2015 16:04 18,6 C 18,3 C 63 % 0 lf 1015,7 hPa 0,0 l/m 2 min 0 min 375 W/m 12,6 km/h (3 Bft)
30.07.2015 16:06 18,7 C 18,9 C 63 % 0 lf 1015,8 hPa 0,0 l/m 0 min 0 min 339 W/m 16,7 km/h (3 Bft)
30.07.2015 16:08 18,7 C 18,9 C 63 % 0 lf 1015,7 hPa 0,0 l/m 0 min 0 min 318 W/m 14,6 km/h (3 Bft)
30.07.2015 16:10 18,7 C 18,3 C 62 % 0 lf 1015,7 hPa 0,0 l/m 0 min 0 min 308 W/m 16,7 km/h (3 Bft)
30.07.2015 16:12 18,6 C 17,8 C 62 % 0 lf 1015,7 hPa 0,0 l/m 0 min 0 min 316 W/m 14,6 km/h (3 Bft)
30.07.2015 16:14 18,6 C 17,8 C 62 % 0 lf 1015,7 hPa 0,0 l/m 0 min 0 min 344 W/m 16,7 km/h (3 Bft)
30.07.2015 16:16 18,6 C 18,3 C 63 % 0 lf 1015,7 hPa 0,0 l/m 2 min 0 min 411 W/m 12,6 km/h (3 Bft)
30.07.2015 16:18 18,6 C 18,3 C 64 % 0 lf 1015,7 hPa 0,0 l/m 2 min 0 min 489 W/m 14,6 km/h (3 Bft)
30.07.2015 16:20 18,6 C 18,9 C 64 % 0 lf 1015,7 hPa 0,0 l/m 2 min 0 min 382 W/m 12,6 km/h (3 Bft)
30.07.2015 16:22 18,6 C 18,3 C 64 % 0 lf 1015,8 hPa 0,0 l/m 2 min 0 min 361 W/m 12,6 km/h (3 Bft)
30.07.2015 16:24 18,6 C 17,8 C 63 % 0 lf 1015,8 hPa 0,0 l/m 0 min 0 min 328 W/m 12,6 km/h (3 Bft)
30.07.2015 16:26 18,6 C 18,3 C 64 % 0 lf 1015,8 hPa 0,0 l/m 0 min 0 min 296 W/m 6,3 km/h (2 Bft)
30.07.2015 16:28 18,6 C 18,3 C 64 % 0 lf 1015,8 hPa 0,0 l/m 0 min 0 min 278 W/m 12,6 km/h (3 Bft)
30.07.2015 16:30 18,6 C 18,3 C 65 % 0 lf 1015,8 hPa 0,0 l/m 0 min 0 min 278 W/m 12,6 km/h (3 Bft)
30.07.2015 16:32 18,6 C 18,3 C 64 % 0 lf 1015,8 hPa 0,0 l/m 0 min 0 min 295 W/m 12,6 km/h (3 Bft)
30.07.2015 16:34 18,5 C 18,3 C 64 % 0 lf 1015,8 hPa 0,0 l/m 0 min 0 min 287 W/m 12,6 km/h (3 Bft)
30.07.2015 16:36 18,4 C 17,8 C 64 % 0 lf 1015,9 hPa 0,0 l/m 0 min 0 min 264 W/m 10,5 km/h (2 Bft)
30.07.2015 16:38 18,4 C 17,8 C 65 % 0 lf 1015,9 hPa 0,0 l/m 0 min 0 min 251 W/m 12,6 km/h (3 Bft)
30.07.2015 16:40 18,4 C 17,2 C 64 % 0 lf 1015,9 hPa 0,0 l/m 0 min 0 min 227 W/m 12,6 km/h (3 Bft)
30.07.2015 16:42 18,3 C 17,2 C 65 % 0 lf 1015,9 hPa 0,0 l/m 0 min 0 min 208 W/m 8,4 km/h (2 Bft)
30.07.2015 16:44 18,3 C 17,2 C 65 % 0 lf 1015,9 hPa 0,0 l/m 0 min 0 min 194 W/m 8,4 km/h (2 Bft)
30.07.2015 16:46 18,3 C 17,8 C 66 % 0 lf 1015,8 hPa 0,0 l/m 0 min 0 min 191 W/m 8,4 km/h (2 Bft)
30.07.2015 16:48 18,3 C 17,8 C 67 % 0 lf 1015,9 hPa 0,0 l/m 0 min 0 min 216 W/m 10,5 km/h (2 Bft)
30.07.2015 16:50 18,3 C 17,8 C 66 % 0 lf 1015,9 hPa 0,0 l/m 0 min 0 min 263 W/m 12,6 km/h (3 Bft)
30.07.2015 16:52 18,3 C 18,3 C 67 % 0 lf 1015,9 hPa 0,0 l/m 2 min 0 min 314 W/m 12,6 km/h (3 Bft)
30.07.2015 16:54 18,3 C 18,3 C 66 % 0 lf 1015,9 hPa 0,0 l/m 0 min 0 min 307 W/m 12,6 km/h (3 Bft)
30.07.2015 16:56 18,3 C 19,4 C 67 % 0 lf 1015,9 hPa 0,0 l/m 2 min 0 min 468 W/m 12,6 km/h (3 Bft)
30.07.2015 16:58 18,4 C 20,0 C 67 % 0 lf 1015,9 hPa 0,0 l/m 2 min 0 min 754 W/m 16,7 km/h (3 Bft)
30.07.2015 17:00 18,4 C 21,1 C 66 % 0 lf 1015,9 hPa 0,0 l/m 2 min 0 min 753 W/m 14,6 km/h (3 Bft)
30.07.2015 17:02 18,5 C 20,0 C 65 % 0 lf 1015,9 hPa 0,0 l/m 2 min 0 min 729 W/m 16,7 km/h (3 Bft)
30.07.2015 17:04 18,5 C 18,9 C 64 % 0 lf 1015,9 hPa 0,0 l/m 2 min 0 min 681 W/m 12,6 km/h (3 Bft)
30.07.2015 17:06 18,6 C 18,3 C 64 % 0 lf 1015,9 hPa 0,0 l/m 0 min 0 min 170 W/m 16,7 km/h (3 Bft)
30.07.2015 17:08 18,6 C 17,8 C 64 % 0 lf 1016,0 hPa 0,0 l/m 0 min 0 min 134 W/m 20,9 km/h (4 Bft)
30.07.2015 17:10 18,5 C 17,2 C 63 % 0 lf 1016,0 hPa 0,0 l/m 0 min 0 min 119 W/m 18,8 km/h (3 Bft)
30.07.2015 17:12 18,4 C 16,7 C 63 % 0 lf 1016,1 hPa 0,0 l/m 0 min 0 min 107 W/m 14,6 km/h (3 Bft)
30.07.2015 17:14 18,4 C 16,7 C 63 % 0 lf 1016,1 hPa 0,0 l/m 0 min 0 min 94 W/m 14,6 km/h (3 Bft)
30.07.2015 17:16 18,4 C 16,7 C 64 % 0 lf 1016,1 hPa 0,0 l/m 0 min 0 min 82 W/m 14,6 km/h (3 Bft)
30.07.2015 17:18 18,3 C 16,7 C 65 % 2 lf 1016,2 hPa 0,0 l/m 0 min 2 min 76 W/m 16,7 km/h (3 Bft)
30.07.2015 17:20 18,3 C 16,1 C 65 % 0 lf 1016,3 hPa 0,0 l/m 0 min 0 min 75 W/m 18,8 km/h (3 Bft)
30.07.2015 17:22 18,2 C 16,1 C 65 % 1 lf 1016,1 hPa 0,0 l/m 0 min 2 min 77 W/m 14,6 km/h (3 Bft)
30.07.2015 17:24 18,1 C 16,1 C 64 % 0 lf 1016,1 hPa 0,0 l/m 0 min 0 min 79 W/m 14,6 km/h (3 Bft)
30.07.2015 17:26 18,1 C 16,1 C 65 % 0 lf 1016,2 hPa 0,0 l/m 0 min 0 min 85 W/m 8,4 km/h (2 Bft)
30.07.2015 17:28 18,0 C 16,1 C 65 % 0 lf 1016,1 hPa 0,0 l/m 0 min 0 min 95 W/m 12,6 km/h (3 Bft)
30.07.2015 17:30 17,9 C 16,1 C 65 % 0 lf 1016,2 hPa 0,0 l/m 0 min 0 min 109 W/m 12,6 km/h (3 Bft)
30.07.2015 17:32 17,9 C 16,7 C 65 % 0 lf 1016,2 hPa 0,0 l/m 0 min 0 min 116 W/m 12,6 km/h (3 Bft)
30.07.2015 17:34 17,9 C 16,7 C 66 % 0 lf 1016,2 hPa 0,0 l/m 0 min 0 min 109 W/m 14,6 km/h (3 Bft)
30.07.2015 17:36 17,8 C 16,1 C 66 % 0 lf 1016,2 hPa 0,0 l/m 0 min 0 min 91 W/m 12,6 km/h (3 Bft)
30.07.2015 17:38 17,8 C 16,1 C 67 % 0 lf 1016,3 hPa 0,0 l/m 0 min 0 min 68 W/m 12,6 km/h (3 Bft)
30.07.2015 17:40 17,7 C 15,6 C 67 % 0 lf 1016,3 hPa 0,0 l/m 0 min 0 min 47 W/m 29,3 km/h (5 Bft)
30.07.2015 17:42 17,6 C 15,6 C 67 % 0 lf 1016,3 hPa 0,0 l/m 0 min 0 min 38 W/m 29,3 km/h (5 Bft)
30.07.2015 17:44 17,5 C 15,6 C 67 % 0 lf 1016,4 hPa 0,0 l/m 0 min 0 min 38 W/m 29,3 km/h (5 Bft)
30.07.2015 17:46 17,4 C 15,0 C 68 % 0 lf 1016,5 hPa 0,0 l/m 0 min 0 min 45 W/m 27,2 km/h (4 Bft)
30.07.2015 17:48 17,3 C 15,0 C 69 % 0 lf 1016,6 hPa 0,0 l/m 0 min 0 min 56 W/m 27,2 km/h (4 Bft)
30.07.2015 17:50 17,2 C 15,0 C 69 % 0 lf 1016,6 hPa 0,0 l/m 0 min 0 min 70 W/m 23,0 km/h (4 Bft)
30.07.2015 17:52 17,1 C 15,0 C 69 % 0 lf 1016,6 hPa 0,0 l/m 0 min 0 min 88 W/m 16,7 km/h (3 Bft)
30.07.2015 17:54 16,9 C 14,4 C 70 % 1 lf 1016,5 hPa 0,0 l/m 0 min 0 min 105 W/m 20,9 km/h (4 Bft)
30.07.2015 17:56 16,7 C 14,4 C 71 % 0 lf 1016,5 hPa 0,0 l/m 0 min 0 min 118 W/m 20,9 km/h (4 Bft)
30.07.2015 17:58 16,6 C 14,4 C 72 % 0 lf 1016,5 hPa 0,0 l/m 0 min 0 min 116 W/m 20,9 km/h (4 Bft)
30.07.2015 18:00 16,5 C 14,4 C 73 % 1 lf 1016,6 hPa 0,0 l/m 0 min 0 min 107 W/m 14,6 km/h (3 Bft)
30.07.2015 18:02 16,4 C 14,4 C 73 % 9 lf 1016,6 hPa 0,0 l/m 0 min 0 min 98 W/m 18,8 km/h (3 Bft)
30.07.2015 18:05 16,2 C 13,9 C 74 % 1 lf 1016,6 hPa 0,0 l/m 0 min 0 min 95 W/m 16,7 km/h (3 Bft)
30.07.2015 18:06 16,1 C 13,9 C 74 % 1 lf 1016,6 hPa 0,0 l/m 0 min 0 min 95 W/m 16,7 km/h (3 Bft)
30.07.2015 18:08 15,9 C 13,9 C 74 % 1 lf 1016,6 hPa 0,0 l/m 0 min 0 min 93 W/m 16,7 km/h (3 Bft)
30.07.2015 18:10 15,8 C 13,3 C 74 % 0 lf 1016,6 hPa 0,0 l/m 0 min 0 min 96 W/m 18,8 km/h (3 Bft)
30.07.2015 18:12 15,7 C 13,3 C 75 % 1 lf 1016,7 hPa 0,0 l/m 0 min 0 min 107 W/m 18,8 km/h (3 Bft)
30.07.2015 18:14 15,5 C 13,9 C 75 % 0 lf 1016,7 hPa 0,0 l/m 0 min 0 min 140 W/m 27,2 km/h (4 Bft)
30.07.2015 18:16 15,4 C 13,9 C 76 % 0 lf 1016,6 hPa 0,0 l/m 0 min 0 min 171 W/m 14,6 km/h (3 Bft)
30.07.2015 18:18 15,3 C 13,9 C 77 % 0 lf 1016,6 hPa 0,0 l/m 0 min 0 min 175 W/m 12,6 km/h (3 Bft)
30.07.2015 18:20 15,3 C 14,4 C 77 % 0 lf 1016,6 hPa 0,0 l/m 0 min 0 min 178 W/m 12,6 km/h (3 Bft)
30.07.2015 18:22 15,2 C 14,4 C 78 % 0 lf 1016,7 hPa 0,0 l/m 0 min 0 min 165 W/m 8,4 km/h (2 Bft)
30.07.2015 18:24 15,2 C 14,4 C 78 % 0 lf 1016,7 hPa 0,0 l/m 0 min 0 min 153 W/m 14,6 km/h (3 Bft)
30.07.2015 18:26 15,2 C 14,4 C 78 % 0 lf 1016,7 hPa 0,0 l/m 0 min 0 min 152 W/m 12,6 km/h (3 Bft)
30.07.2015 18:28 15,1 C 14,4 C 78 % 0 lf 1016,7 hPa 0,0 l/m 0 min 0 min 157 W/m 6,3 km/h (2 Bft)
30.07.2015 18:30 15,1 C 14,4 C 78 % 0 lf 1016,8 hPa 0,0 l/m 0 min 0 min 162 W/m 10,5 km/h (2 Bft)
30.07.2015 18:32 15,1 C 14,4 C 78 % 0 lf 1016,8 hPa 0,0 l/m 0 min 0 min 145 W/m 10,5 km/h (2 Bft)
30.07.2015 18:34 15,1 C 14,4 C 78 % 0 lf 1016,8 hPa 0,0 l/m 0 min 0 min 122 W/m 8,4 km/h (2 Bft)
30.07.2015 18:36 15,1 C 14,4 C 78 % 0 lf 1016,8 hPa 0,0 l/m 0 min 0 min 114 W/m 10,5 km/h (2 Bft)
30.07.2015 18:38 15,1 C 14,4 C 78 % 0 lf 1016,8 hPa 0,0 l/m 0 min 0 min 113 W/m 8,4 km/h (2 Bft)
30.07.2015 18:40 15,1 C 14,4 C 78 % 0 lf 1016,8 hPa 0,0 l/m 0 min 0 min 109 W/m 6,3 km/h (2 Bft)
30.07.2015 18:42 15,1 C 14,4 C 78 % 0 lf 1016,8 hPa 0,0 l/m 0 min 0 min 104 W/m 8,4 km/h (2 Bft)
30.07.2015 18:44 15,1 C 14,4 C 78 % 0 lf 1016,8 hPa 0,0 l/m 0 min 0 min 108 W/m 8,4 km/h (2 Bft)
30.07.2015 18:46 15,1 C 14,4 C 77 % 0 lf 1016,8 hPa 0,0 l/m 0 min 0 min 123 W/m 6,3 km/h (2 Bft)
30.07.2015 18:48 15,1 C 14,4 C 77 % 0 lf 1016,8 hPa 0,0 l/m 0 min 0 min 138 W/m 10,5 km/h (2 Bft)
30.07.2015 18:50 15,1 C 14,4 C 77 % 0 lf 1016,8 hPa 0,0 l/m 0 min 0 min 150 W/m 10,5 km/h (2 Bft)
30.07.2015 18:52 15,1 C 15,0 C 77 % 0 lf 1016,8 hPa 0,0 l/m 0 min 0 min 152 W/m 6,3 km/h (2 Bft)
30.07.2015 18:54 15,1 C 15,0 C 77 % 0 lf 1016,8 hPa 0,0 l/m 0 min 0 min 145 W/m 10,5 km/h (2 Bft)
30.07.2015 18:56 15,1 C 15,0 C 77 % 0 lf 1016,7 hPa 0,0 l/m 0 min 0 min 134 W/m 10,5 km/h (2 Bft)
30.07.2015 18:58 15,1 C 15,0 C 76 % 0 lf 1016,8 hPa 0,0 l/m 0 min 0 min 127 W/m 10,5 km/h (2 Bft)
30.07.2015 19:00 15,2 C 15,0 C 76 % 0 lf 1016,8 hPa 0,0 l/m 0 min 0 min 118 W/m 10,5 km/h (2 Bft)
30.07.2015 19:02 15,2 C 14,4 C 77 % 0 lf 1016,8 hPa 0,0 l/m 0 min 0 min 107 W/m 8,4 km/h (2 Bft)
30.07.2015 19:04 15,2 C 14,4 C 77 % 0 lf 1016,8 hPa 0,0 l/m 0 min 0 min 93 W/m 8,4 km/h (2 Bft)
30.07.2015 19:06 15,2 C 14,4 C 77 % 0 lf 1016,8 hPa 0,0 l/m 0 min 0 min 79 W/m 12,6 km/h (3 Bft)
30.07.2015 19:08 15,2 C 14,4 C 77 % 0 lf 1016,8 hPa 0,0 l/m 0 min 0 min 66 W/m 8,4 km/h (2 Bft)
30.07.2015 19:10 15,2 C 14,4 C 77 % 0 lf 1016,8 hPa 0,0 l/m 0 min 0 min 60 W/m 8,4 km/h (2 Bft)
30.07.2015 19:12 15,2 C 14,4 C 77 % 0 lf 1016,9 hPa 0,0 l/m 0 min 0 min 52 W/m 10,5 km/h (2 Bft)
30.07.2015 19:14 15,2 C 14,4 C 77 % 0 lf 1016,9 hPa 0,0 l/m 0 min 0 min 48 W/m 10,5 km/h (2 Bft)
30.07.2015 19:16 15,3 C 13,9 C 78 % 2 lf 1017,0 hPa 0,0 l/m 0 min 2 min 47 W/m 10,5 km/h (2 Bft)
30.07.2015 19:18 15,3 C 13,9 C 78 % 0 lf 1016,9 hPa 0,0 l/m 0 min 2 min 47 W/m 8,4 km/h (2 Bft)
30.07.2015 19:20 15,3 C 13,9 C 78 % 1 lf 1016,9 hPa 0,0 l/m 0 min 0 min 47 W/m 8,4 km/h (2 Bft)
30.07.2015 19:22 15,3 C 13,9 C 78 % 0 lf 1016,9 hPa 0,0 l/m 0 min 0 min 46 W/m 4,2 km/h (1 Bft)
30.07.2015 19:24 15,3 C 13,9 C 78 % 0 lf 1016,9 hPa 0,0 l/m 0 min 0 min 46 W/m 2,1 km/h (1 Bft)
30.07.2015 19:26 15,3 C 13,9 C 79 % 0 lf 1016,9 hPa 0,0 l/m 0 min 0 min 47 W/m 2,1 km/h (1 Bft)
30.07.2015 19:28 15,3 C 13,9 C 79 % 0 lf 1016,9 hPa 0,0 l/m 0 min 2 min 48 W/m 2,1 km/h (1 Bft)
30.07.2015 19:30 15,3 C 13,9 C 79 % 0 lf 1016,9 hPa 0,0 l/m 0 min 0 min 53 W/m 4,2 km/h (1 Bft)
30.07.2015 19:32 15,3 C 13,9 C 79 % 0 lf 1016,8 hPa 0,0 l/m 0 min 0 min 56 W/m 2,1 km/h (1 Bft)
30.07.2015 19:34 15,3 C 14,4 C 80 % 0 lf 1016,8 hPa 0,0 l/m 0 min 0 min 62 W/m 2,1 km/h (1 Bft)
30.07.2015 19:36 15,3 C 14,4 C 80 % 0 lf 1016,9 hPa 0,0 l/m 0 min 0 min 63 W/m 2,1 km/h (1 Bft)
30.07.2015 19:38 15,3 C 14,4 C 80 % 0 lf 1016,9 hPa 0,0 l/m 0 min 0 min 63 W/m 8,4 km/h (2 Bft)
30.07.2015 19:40 15,3 C 14,4 C 80 % 1 lf 1016,9 hPa 0,0 l/m 0 min 0 min 61 W/m 8,4 km/h (2 Bft)
30.07.2015 19:42 15,3 C 13,9 C 80 % 0 lf 1016,9 hPa 0,0 l/m 0 min 2 min 58 W/m 6,3 km/h (2 Bft)
30.07.2015 19:44 15,3 C 14,4 C 81 % 0 lf 1016,9 hPa 0,0 l/m 0 min 2 min 56 W/m 8,4 km/h (2 Bft)
30.07.2015 19:46 15,3 C 13,9 C 81 % 1 lf 1016,9 hPa 0,0 l/m 0 min 2 min 52 W/m 8,4 km/h (2 Bft)
30.07.2015 19:48 15,3 C 13,9 C 81 % 0 lf 1017,0 hPa 0,0 l/m 0 min 2 min 50 W/m 6,3 km/h (2 Bft)
30.07.2015 19:50 15,3 C 13,9 C 81 % 7 lf 1017,0 hPa 0,0 l/m 0 min 2 min 47 W/m 10,5 km/h (2 Bft)
30.07.2015 19:52 15,3 C 13,9 C 82 % 15 lf 1017,0 hPa 0,0 l/m 0 min 2 min 46 W/m 12,6 km/h (3 Bft)
30.07.2015 19:54 15,3 C 13,3 C 82 % 15 lf 1017,0 hPa 0,0 l/m 0 min 2 min 46 W/m 12,6 km/h (3 Bft)
30.07.2015 19:56 15,3 C 13,3 C 82 % 15 lf 1017,0 hPa 0,0 l/m 0 min 2 min 46 W/m 12,6 km/h (3 Bft)
30.07.2015 19:58 15,3 C 12,8 C 82 % 15 lf 1017,1 hPa 0,0 l/m 0 min 2 min 45 W/m 8,4 km/h (2 Bft)
30.07.2015 20:00 15,3 C 12,8 C 82 % 15 lf 1017,1 hPa 0,0 l/m 0 min 0 min 43 W/m 6,3 km/h (2 Bft)
30.07.2015 20:02 15,3 C 12,8 C 82 % 15 lf 1017,1 hPa 0,0 l/m 0 min 0 min 40 W/m 6,3 km/h (2 Bft)
30.07.2015 20:04 15,3 C 13,3 C 82 % 15 lf 1017,1 hPa 0,0 l/m 0 min 0 min 38 W/m 10,5 km/h (2 Bft)
30.07.2015 20:06 15,3 C 13,3 C 82 % 15 lf 1017,1 hPa 0,0 l/m 0 min 0 min 36 W/m 4,2 km/h (1 Bft)
30.07.2015 20:08 15,3 C 13,3 C 82 % 15 lf 1017,2 hPa 0,0 l/m 0 min 0 min 35 W/m 4,2 km/h (1 Bft)
30.07.2015 20:10 15,2 C 13,3 C 83 % 15 lf 1017,1 hPa 0,0 l/m 0 min 0 min 35 W/m 4,2 km/h (1 Bft)
30.07.2015 20:12 15,2 C 13,3 C 83 % 15 lf 1017,2 hPa 0,0 l/m 0 min 0 min 35 W/m 6,3 km/h (2 Bft)
30.07.2015 20:14 15,2 C 13,3 C 83 % 15 lf 1017,2 hPa 0,0 l/m 0 min 0 min 35 W/m 4,2 km/h (1 Bft)
30.07.2015 20:16 15,2 C 13,3 C 83 % 14 lf 1017,2 hPa 0,0 l/m 0 min 0 min 36 W/m 6,3 km/h (2 Bft)
30.07.2015 20:18 15,2 C 13,3 C 83 % 12 lf 1017,3 hPa 0,0 l/m 0 min 0 min 37 W/m 4,2 km/h (1 Bft)
30.07.2015 20:20 15,2 C 13,3 C 83 % 11 lf 1017,3 hPa 0,0 l/m 0 min 0 min 37 W/m 4,2 km/h (1 Bft)
30.07.2015 20:22 15,1 C 13,3 C 83 % 7 lf 1017,4 hPa 0,0 l/m 0 min 0 min 36 W/m 4,2 km/h (1 Bft)
30.07.2015 20:24 15,1 C 13,9 C 83 % 3 lf 1017,4 hPa 0,0 l/m 0 min 0 min 35 W/m 4,2 km/h (1 Bft)
30.07.2015 20:26 15,1 C 13,9 C 83 % 2 lf 1017,4 hPa 0,0 l/m 0 min 0 min 37 W/m 6,3 km/h (2 Bft)
30.07.2015 20:28 15,1 C 13,9 C 84 % 0 lf 1017,4 hPa 0,0 l/m 0 min 0 min 37 W/m 6,3 km/h (2 Bft)
30.07.2015 20:30 15,1 C 13,9 C 84 % 0 lf 1017,4 hPa 0,0 l/m 0 min 0 min 37 W/m 6,3 km/h (2 Bft)
30.07.2015 20:32 15,0 C 13,9 C 83 % 0 lf 1017,4 hPa 0,0 l/m 0 min 0 min 38 W/m 8,4 km/h (2 Bft)
30.07.2015 20:34 15,0 C 13,9 C 83 % 0 lf 1017,4 hPa 0,0 l/m 0 min 0 min 37 W/m 6,3 km/h (2 Bft)
30.07.2015 20:36 14,9 C 13,9 C 83 % 0 lf 1017,5 hPa 0,0 l/m 0 min 0 min 37 W/m 4,2 km/h (1 Bft)
30.07.2015 20:38 14,9 C 13,9 C 83 % 0 lf 1017,5 hPa 0,0 l/m 0 min 0 min 35 W/m 6,3 km/h (2 Bft)
30.07.2015 20:40 14,9 C 13,9 C 83 % 0 lf 1017,5 hPa 0,0 l/m 0 min 0 min 33 W/m 6,3 km/h (2 Bft)
30.07.2015 20:42 14,9 C 13,9 C 83 % 0 lf 1017,5 hPa 0,0 l/m 0 min 0 min 30 W/m 6,3 km/h (2 Bft)
30.07.2015 20:44 14,9 C 13,9 C 84 % 0 lf 1017,5 hPa 0,0 l/m 0 min 0 min 26 W/m 6,3 km/h (2 Bft)
30.07.2015 20:46 14,9 C 13,9 C 84 % 0 lf 1017,5 hPa 0,0 l/m 0 min 0 min 24 W/m 4,2 km/h (1 Bft)
30.07.2015 20:48 14,9 C 13,9 C 84 % 0 lf 1017,5 hPa 0,0 l/m 0 min 0 min 20 W/m 4,2 km/h (1 Bft)
30.07.2015 20:50 14,9 C 13,9 C 84 % 0 lf 1017,5 hPa 0,0 l/m 0 min 0 min 16 W/m 8,4 km/h (2 Bft)
30.07.2015 20:52 14,8 C 13,9 C 84 % 0 lf 1017,5 hPa 0,0 l/m 0 min 0 min 14 W/m 6,3 km/h (2 Bft)
30.07.2015 20:54 14,8 C 13,3 C 84 % 0 lf 1017,6 hPa 0,0 l/m 0 min 0 min 12 W/m 6,3 km/h (2 Bft)
30.07.2015 20:56 14,8 C 13,3 C 84 % 0 lf 1017,6 hPa 0,0 l/m 0 min 0 min 11 W/m 10,5 km/h (2 Bft)
30.07.2015 20:58 14,8 C 13,3 C 84 % 0 lf 1017,6 hPa 0,0 l/m 0 min 0 min 9 W/m 8,4 km/h (2 Bft)
30.07.2015 21:00 14,8 C 13,3 C 84 % 0 lf 1017,6 hPa 0,0 l/m 0 min 0 min 9 W/m 6,3 km/h (2 Bft)
30.07.2015 21:02 14,8 C 13,3 C 84 % 0 lf 1017,6 hPa 0,0 l/m 0 min 0 min 7 W/m 8,4 km/h (2 Bft)
30.07.2015 21:04 14,8 C 13,3 C 84 % 0 lf 1017,7 hPa 0,0 l/m 0 min 0 min 7 W/m 10,5 km/h (2 Bft)
30.07.2015 21:06 14,8 C 13,3 C 84 % 0 lf 1017,6 hPa 0,0 l/m 0 min 0 min 7 W/m 10,5 km/h (2 Bft)
30.07.2015 21:08 14,8 C 13,3 C 84 % 0 lf 1017,7 hPa 0,0 l/m 0 min 0 min 7 W/m 8,4 km/h (2 Bft)
30.07.2015 21:10 14,8 C 13,3 C 84 % 0 lf 1017,7 hPa 0,0 l/m 0 min 0 min 7 W/m 8,4 km/h (2 Bft)
30.07.2015 21:12 14,8 C 13,3 C 84 % 0 lf 1017,7 hPa 0,0 l/m 0 min 0 min 7 W/m 4,2 km/h (1 Bft)
30.07.2015 21:14 14,7 C 13,3 C 85 % 0 lf 1017,7 hPa 0,0 l/m 0 min 0 min 7 W/m 10,5 km/h (2 Bft)
30.07.2015 21:16 14,8 C 13,3 C 85 % 0 lf 1017,7 hPa 0,0 l/m 0 min 0 min 5 W/m 8,4 km/h (2 Bft)
30.07.2015 21:18 14,7 C 13,3 C 85 % 0 lf 1017,7 hPa 0,0 l/m 0 min 0 min 5 W/m 8,4 km/h (2 Bft)
30.07.2015 21:20 14,7 C 13,3 C 85 % 0 lf 1017,7 hPa 0,0 l/m 0 min 0 min 5 W/m 10,5 km/h (2 Bft)
30.07.2015 21:22 14,7 C 13,3 C 85 % 0 lf 1017,7 hPa 0,0 l/m 0 min 0 min 5 W/m 10,5 km/h (2 Bft)
30.07.2015 21:24 14,7 C 13,3 C 85 % 0 lf 1017,8 hPa 0,0 l/m 0 min 0 min 5 W/m 8,4 km/h (2 Bft)
30.07.2015 21:26 14,7 C 13,3 C 85 % 0 lf 1017,8 hPa 0,0 l/m 0 min 0 min 5 W/m 6,3 km/h (2 Bft)
30.07.2015 21:28 14,7 C 13,3 C 85 % 0 lf 1017,8 hPa 0,0 l/m 0 min 0 min 5 W/m 8,4 km/h (2 Bft)
30.07.2015 21:30 14,7 C 13,3 C 85 % 0 lf 1017,9 hPa 0,0 l/m 0 min 0 min 5 W/m 10,5 km/h (2 Bft)
30.07.2015 21:32 14,7 C 13,3 C 86 % 0 lf 1017,9 hPa 0,0 l/m 0 min 0 min 5 W/m 8,4 km/h (2 Bft)
30.07.2015 21:34 14,7 C 13,3 C 86 % 0 lf 1017,9 hPa 0,0 l/m 0 min 0 min 2 W/m 6,3 km/h (2 Bft)
30.07.2015 21:36 14,7 C 13,3 C 86 % 0 lf 1017,8 hPa 0,0 l/m 0 min 0 min 0 W/m 6,3 km/h (2 Bft)
30.07.2015 21:38 14,7 C 13,3 C 86 % 0 lf 1017,9 hPa 0,0 l/m 0 min 0 min 0 W/m 8,4 km/h (2 Bft)
30.07.2015 21:40 14,7 C 13,3 C 86 % 0 lf 1018,0 hPa 0,0 l/m 0 min 0 min 0 W/m 8,4 km/h (2 Bft)
30.07.2015 21:42 14,7 C 13,3 C 86 % 0 lf 1018,0 hPa 0,0 l/m 0 min 0 min 0 W/m 4,2 km/h (1 Bft)
30.07.2015 21:44 14,7 C 13,3 C 86 % 0 lf 1018,0 hPa 0,0 l/m 0 min 0 min 0 W/m 6,3 km/h (2 Bft)
30.07.2015 21:46 14,6 C 13,3 C 86 % 0 lf 1018,0 hPa 0,0 l/m 0 min 0 min 0 W/m 6,3 km/h (2 Bft)
30.07.2015 21:48 14,7 C 13,3 C 86 % 0 lf 1018,0 hPa 0,0 l/m 0 min 0 min 0 W/m 4,2 km/h (1 Bft)
30.07.2015 21:50 14,6 C 13,3 C 86 % 0 lf 1018,1 hPa 0,0 l/m 0 min 0 min 0 W/m 4,2 km/h (1 Bft)
30.07.2015 21:52 14,6 C 13,3 C 87 % 0 lf 1018,1 hPa 0,0 l/m 0 min 0 min 0 W/m 8,4 km/h (2 Bft)
30.07.2015 21:54 14,6 C 13,3 C 87 % 0 lf 1018,0 hPa 0,0 l/m 0 min 0 min 0 W/m 10,5 km/h (2 Bft)
30.07.2015 21:56 14,6 C 13,3 C 87 % 0 lf 1018,1 hPa 0,0 l/m 0 min 0 min 0 W/m 8,4 km/h (2 Bft)
30.07.2015 21:58 14,6 C 13,3 C 87 % 0 lf 1018,1 hPa 0,0 l/m 0 min 0 min 0 W/m 8,4 km/h (2 Bft)
30.07.2015 22:00 14,6 C 13,3 C 87 % 0 lf 1018,2 hPa 0,0 l/m 0 min 0 min 0 W/m 8,4 km/h (2 Bft)
30.07.2015 22:02 14,6 C 13,3 C 87 % 0 lf 1018,2 hPa 0,0 l/m 0 min 0 min 0 W/m 8,4 km/h (2 Bft)
30.07.2015 22:04 14,6 C 13,3 C 87 % 0 lf 1018,3 hPa 0,0 l/m 0 min 0 min 0 W/m 8,4 km/h (2 Bft)
30.07.2015 22:06 14,5 C 13,3 C 87 % 0 lf 1018,2 hPa 0,0 l/m 0 min 0 min 0 W/m 10,5 km/h (2 Bft)
30.07.2015 22:08 14,5 C 13,3 C 87 % 0 lf 1018,3 hPa 0,0 l/m 0 min 0 min 0 W/m 8,4 km/h (2 Bft)
30.07.2015 22:10 14,5 C 13,3 C 87 % 0 lf 1018,3 hPa 0,0 l/m 0 min 0 min 0 W/m 8,4 km/h (2 Bft)
30.07.2015 22:12 14,5 C 13,3 C 87 % 0 lf 1018,3 hPa 0,0 l/m 0 min 0 min 0 W/m 6,3 km/h (2 Bft)
30.07.2015 22:14 14,4 C 13,3 C 87 % 0 lf 1018,3 hPa 0,0 l/m 0 min 0 min 0 W/m 6,3 km/h (2 Bft)
30.07.2015 22:16 14,4 C 13,3 C 87 % 0 lf 1018,3 hPa 0,0 l/m 0 min 0 min 0 W/m 12,6 km/h (3 Bft)
30.07.2015 22:18 14,4 C 13,3 C 87 % 0 lf 1018,3 hPa 0,0 l/m 0 min 0 min 0 W/m 10,5 km/h (2 Bft)
30.07.2015 22:20 14,4 C 13,3 C 87 % 0 lf 1018,4 hPa 0,0 l/m 0 min 0 min 0 W/m 10,5 km/h (2 Bft)
30.07.2015 22:22 14,4 C 12,8 C 88 % 0 lf 1018,3 hPa 0,0 l/m 0 min 0 min 0 W/m 8,4 km/h (2 Bft)
30.07.2015 22:24 14,4 C 12,8 C 88 % 0 lf 1018,3 hPa 0,0 l/m 0 min 0 min 0 W/m 6,3 km/h (2 Bft)
30.07.2015 22:26 14,3 C 12,8 C 88 % 0 lf 1018,3 hPa 0,0 l/m 0 min 0 min 0 W/m 8,4 km/h (2 Bft)
30.07.2015 22:28 14,3 C 12,8 C 88 % 0 lf 1018,4 hPa 0,0 l/m 0 min 0 min 0 W/m 8,4 km/h (2 Bft)
30.07.2015 22:30 14,3 C 12,8 C 88 % 0 lf 1018,4 hPa 0,0 l/m 0 min 0 min 0 W/m 8,4 km/h (2 Bft)
30.07.2015 22:32 14,3 C 12,8 C 88 % 0 lf 1018,4 hPa 0,0 l/m 0 min 0 min 0 W/m 6,3 km/h (2 Bft)
30.07.2015 22:34 14,3 C 12,8 C 88 % 0 lf 1018,4 hPa 0,0 l/m 0 min 0 min 0 W/m 8,4 km/h (2 Bft)
30.07.2015 22:36 14,2 C 12,8 C 88 % 0 lf 1018,4 hPa 0,0 l/m 0 min 0 min 0 W/m 8,4 km/h (2 Bft)
30.07.2015 22:38 14,2 C 12,8 C 88 % 0 lf 1018,4 hPa 0,0 l/m 0 min 0 min 0 W/m 8,4 km/h (2 Bft)
30.07.2015 22:40 14,2 C 12,8 C 88 % 0 lf 1018,4 hPa 0,0 l/m 0 min 0 min 0 W/m 6,3 km/h (2 Bft)
30.07.2015 22:42 14,2 C 12,8 C 88 % 0 lf 1018,5 hPa 0,0 l/m 0 min 0 min 0 W/m 8,4 km/h (2 Bft)
30.07.2015 22:44 14,2 C 12,8 C 88 % 0 lf 1018,5 hPa 0,0 l/m 0 min 0 min 0 W/m 6,3 km/h (2 Bft)
30.07.2015 22:46 14,2 C 12,8 C 88 % 0 lf 1018,5 hPa 0,0 l/m 0 min 0 min 0 W/m 10,5 km/h (2 Bft)
30.07.2015 22:48 14,2 C 12,8 C 88 % 0 lf 1018,5 hPa 0,0 l/m 0 min 0 min 0 W/m 10,5 km/h (2 Bft)
30.07.2015 22:50 14,2 C 12,8 C 88 % 0 lf 1018,5 hPa 0,0 l/m 0 min 0 min 0 W/m 12,6 km/h (3 Bft)
30.07.2015 22:52 14,2 C 12,8 C 88 % 0 lf 1018,6 hPa 0,0 l/m 0 min 0 min 0 W/m 8,4 km/h (2 Bft)
30.07.2015 22:54 14,2 C 12,8 C 88 % 0 lf 1018,6 hPa 0,0 l/m 0 min 0 min 0 W/m 8,4 km/h (2 Bft)
30.07.2015 22:56 14,2 C 12,8 C 88 % 0 lf 1018,5 hPa 0,0 l/m 0 min 0 min 0 W/m 10,5 km/h (2 Bft)
30.07.2015 22:58 14,2 C 12,8 C 88 % 0 lf 1018,6 hPa 0,0 l/m 0 min 0 min 0 W/m 8,4 km/h (2 Bft)
30.07.2015 23:00 14,1 C 12,8 C 88 % 0 lf 1018,6 hPa 0,0 l/m 0 min 0 min 0 W/m 8,4 km/h (2 Bft)
30.07.2015 23:02 14,1 C 12,8 C 88 % 0 lf 1018,6 hPa 0,0 l/m 0 min 0 min 0 W/m 6,3 km/h (2 Bft)
30.07.2015 23:04 14,0 C 12,8 C 88 % 0 lf 1018,6 hPa 0,0 l/m 0 min 0 min 0 W/m 6,3 km/h (2 Bft)
30.07.2015 23:06 14,0 C 12,8 C 88 % 0 lf 1018,6 hPa 0,0 l/m 0 min 0 min 0 W/m 6,3 km/h (2 Bft)
30.07.2015 23:08 14,0 C 12,8 C 88 % 0 lf 1018,7 hPa 0,0 l/m 0 min 0 min 0 W/m 8,4 km/h (2 Bft)
30.07.2015 23:10 13,9 C 12,8 C 88 % 0 lf 1018,7 hPa 0,0 l/m 0 min 0 min 0 W/m 8,4 km/h (2 Bft)
30.07.2015 23:12 13,9 C 12,8 C 88 % 0 lf 1018,7 hPa 0,0 l/m 0 min 0 min 0 W/m 8,4 km/h (2 Bft)
30.07.2015 23:14 13,9 C 12,8 C 88 % 0 lf 1018,7 hPa 0,0 l/m 0 min 0 min 0 W/m 8,4 km/h (2 Bft)
30.07.2015 23:16 13,9 C 12,8 C 88 % 0 lf 1018,7 hPa 0,0 l/m 0 min 0 min 0 W/m 10,5 km/h (2 Bft)
30.07.2015 23:18 13,9 C 12,8 C 88 % 0 lf 1018,7 hPa 0,0 l/m 0 min 0 min 0 W/m 6,3 km/h (2 Bft)
30.07.2015 23:20 13,8 C 12,8 C 88 % 0 lf 1018,7 hPa 0,0 l/m 0 min 0 min 0 W/m 8,4 km/h (2 Bft)
30.07.2015 23:22 13,8 C 12,8 C 88 % 0 lf 1018,7 hPa 0,0 l/m 0 min 0 min 0 W/m 8,4 km/h (2 Bft)
30.07.2015 23:24 13,8 C 12,2 C 89 % 0 lf 1018,8 hPa 0,0 l/m 0 min 0 min 0 W/m 8,4 km/h (2 Bft)
30.07.2015 23:26 13,8 C 12,2 C 89 % 0 lf 1018,7 hPa 0,0 l/m 0 min 0 min 0 W/m 8,4 km/h (2 Bft)
30.07.2015 23:28 13,8 C 12,2 C 89 % 0 lf 1018,8 hPa 0,0 l/m 0 min 0 min 0 W/m 8,4 km/h (2 Bft)
30.07.2015 23:30 13,8 C 12,2 C 89 % 0 lf 1018,7 hPa 0,0 l/m 0 min 0 min 0 W/m 10,5 km/h (2 Bft)
30.07.2015 23:32 13,7 C 12,2 C 89 % 0 lf 1018,8 hPa 0,0 l/m 0 min 0 min 0 W/m 6,3 km/h (2 Bft)
30.07.2015 23:34 13,7 C 12,2 C 89 % 0 lf 1018,8 hPa 0,0 l/m 0 min 0 min 0 W/m 8,4 km/h (2 Bft)
30.07.2015 23:36 13,7 C 12,2 C 89 % 0 lf 1018,9 hPa 0,0 l/m 0 min 0 min 0 W/m 6,3 km/h (2 Bft)
30.07.2015 23:38 13,7 C 12,2 C 89 % 0 lf 1018,9 hPa 0,0 l/m 0 min 0 min 0 W/m 8,4 km/h (2 Bft)
30.07.2015 23:40 13,7 C 12,2 C 89 % 0 lf 1019,0 hPa 0,0 l/m 0 min 0 min 0 W/m 8,4 km/h (2 Bft)
30.07.2015 23:42 13,7 C 12,2 C 89 % 0 lf 1018,9 hPa 0,0 l/m 0 min 0 min 0 W/m 6,3 km/h (2 Bft)
30.07.2015 23:44 13,6 C 12,2 C 89 % 0 lf 1019,0 hPa 0,0 l/m 0 min 0 min 0 W/m 8,4 km/h (2 Bft)
30.07.2015 23:46 13,6 C 11,7 C 89 % 0 lf 1018,9 hPa 0,0 l/m 0 min 0 min 0 W/m 4,2 km/h (1 Bft)
30.07.2015 23:48 13,6 C 11,7 C 89 % 0 lf 1019,0 hPa 0,0 l/m 0 min 0 min 0 W/m 6,3 km/h (2 Bft)
30.07.2015 23:50 13,6 C 11,7 C 89 % 1 lf 1019,0 hPa 0,0 l/m 0 min 0 min 0 W/m 4,2 km/h (1 Bft)
30.07.2015 23:52 13,6 C 11,7 C 89 % 1 lf 1019,0 hPa 0,0 l/m 0 min 0 min 0 W/m 4,2 km/h (1 Bft)
30.07.2015 23:54 13,5 C 11,7 C 89 % 1 lf 1019,0 hPa 0,0 l/m 0 min 0 min 0 W/m 6,3 km/h (2 Bft)
30.07.2015 23:56 13,4 C 11,7 C 89 % 1 lf 1019,0 hPa 0,0 l/m 0 min 0 min 0 W/m 4,2 km/h (1 Bft)
30.07.2015 23:58 13,4 C 11,7 C 89 % 1 lf 1019,1 hPa 0,0 l/m 0 min 0 min 0 W/m 6,3 km/h (2 Bft)
_ Min-Zeit 04:26 03:32 12:44 00:00 00:18 - - - - 03:28
Minimum _ 10,3 C 8,9 C 56 % 0 lf 1012,3 hPa - - - - 2,1 km/h (1 Bft)
_ Max-Zeit 13:42 12:26 06:58 19:52 23:58 00:00 06:28 17:18 11:50 14:06
Maximum _ 21,1 C 24,4 C 93 % 15 lf 1019,1 hPa 0,0 l/m 2 min 2 min 1039 W/m 41,8 km/h
W-NW (6 Bft)
Durchschnitt _ 14,7 C 13,8 C 81 % 0 lf 1015,0 hPa #0,0 l/m #6:26 h #28 min. 288 W/m 11,8 km/h (2 Bft)
© 2015 W. Hausmann